<?xml version="1.0" encoding="UTF-8" standalone="no" ?>
<gpx xmlns="http://www.topografix.com/GPX/1/1" xmlns:xsi="http://www.w3.org/2001/XMLSchema-instance" xsi:schemaLocation="http://www.topografix.com/GPX/1/1 http://www.topografix.com/GPX/1/1/gpx.xsd" version="1.1" creator="VisuGPX - https://www.visugpx.com">
  <metadata>
    <name>64 - VTT - Monein - Circuit 11 noir</name>
    <desc><![CDATA[Reconnaissance circuit n° 11 noir BALISAGE NON FINI]]></desc>
  </metadata>
  <trk>
    <name><![CDATA[ACTIVE LOG]]></name>
    <trkseg>
      <trkpt lat="43.31581" lon="-0.58542">
        <ele>197.688232</ele>
        <time>2012-11-16T10:40:46Z</time>
      </trkpt>
      <trkpt lat="43.31581" lon="-0.58542">
        <ele>197.688232</ele>
        <time>2012-11-16T10:40:47Z</time>
      </trkpt>
      <trkpt lat="43.31581" lon="-0.58541">
        <ele>197.688232</ele>
        <time>2012-11-16T10:40:48Z</time>
      </trkpt>
      <trkpt lat="43.31581" lon="-0.58542">
        <ele>196.246338</ele>
        <time>2012-11-16T10:41:18Z</time>
      </trkpt>
      <trkpt lat="43.31581" lon="-0.58543">
        <ele>197.20752</ele>
        <time>2012-11-16T10:41:29Z</time>
      </trkpt>
      <trkpt lat="43.31588" lon="-0.58539">
        <ele>196.246338</ele>
        <time>2012-11-16T10:41:33Z</time>
      </trkpt>
      <trkpt lat="43.31618" lon="-0.5853">
        <ele>192.401123</ele>
        <time>2012-11-16T10:41:38Z</time>
      </trkpt>
      <trkpt lat="43.31635" lon="-0.58527">
        <ele>189.516968</ele>
        <time>2012-11-16T10:41:40Z</time>
      </trkpt>
      <trkpt lat="43.31663" lon="-0.58523">
        <ele>184.710571</ele>
        <time>2012-11-16T10:41:43Z</time>
      </trkpt>
      <trkpt lat="43.31683" lon="-0.5852">
        <ele>180.865234</ele>
        <time>2012-11-16T10:41:45Z</time>
      </trkpt>
      <trkpt lat="43.31702" lon="-0.58515">
        <ele>177.981201</ele>
        <time>2012-11-16T10:41:47Z</time>
      </trkpt>
      <trkpt lat="43.3173" lon="-0.58495">
        <ele>173.655273</ele>
        <time>2012-11-16T10:41:50Z</time>
      </trkpt>
      <trkpt lat="43.31738" lon="-0.58485">
        <ele>172.69397</ele>
        <time>2012-11-16T10:41:51Z</time>
      </trkpt>
      <trkpt lat="43.31765" lon="-0.58457">
        <ele>170.290649</ele>
        <time>2012-11-16T10:41:54Z</time>
      </trkpt>
      <trkpt lat="43.31813" lon="-0.58384">
        <ele>169.329468</ele>
        <time>2012-11-16T10:42:02Z</time>
      </trkpt>
      <trkpt lat="43.31833" lon="-0.58349">
        <ele>172.69397</ele>
        <time>2012-11-16T10:42:10Z</time>
      </trkpt>
      <trkpt lat="43.31845" lon="-0.58328">
        <ele>175.09729</ele>
        <time>2012-11-16T10:42:15Z</time>
      </trkpt>
      <trkpt lat="43.31879" lon="-0.58245">
        <ele>176.539307</ele>
        <time>2012-11-16T10:42:32Z</time>
      </trkpt>
      <trkpt lat="43.31893" lon="-0.58218">
        <ele>175.577881</ele>
        <time>2012-11-16T10:42:39Z</time>
      </trkpt>
      <trkpt lat="43.31894" lon="-0.58214">
        <ele>175.577881</ele>
        <time>2012-11-16T10:42:40Z</time>
      </trkpt>
      <trkpt lat="43.31908" lon="-0.58167">
        <ele>174.135864</ele>
        <time>2012-11-16T10:42:47Z</time>
      </trkpt>
      <trkpt lat="43.31947" lon="-0.58123">
        <ele>170.771362</ele>
        <time>2012-11-16T10:42:53Z</time>
      </trkpt>
      <trkpt lat="43.31961" lon="-0.58109">
        <ele>166.926025</ele>
        <time>2012-11-16T10:42:55Z</time>
      </trkpt>
      <trkpt lat="43.31987" lon="-0.5807">
        <ele>162.600098</ele>
        <time>2012-11-16T10:43:02Z</time>
      </trkpt>
      <trkpt lat="43.32015" lon="-0.58022">
        <ele>158.754761</ele>
        <time>2012-11-16T10:43:08Z</time>
      </trkpt>
      <trkpt lat="43.32024" lon="-0.58005">
        <ele>158.27417</ele>
        <time>2012-11-16T10:43:10Z</time>
      </trkpt>
      <trkpt lat="43.32036" lon="-0.57984">
        <ele>154.428955</ele>
        <time>2012-11-16T10:43:13Z</time>
      </trkpt>
      <trkpt lat="43.32042" lon="-0.57975">
        <ele>152.986938</ele>
        <time>2012-11-16T10:43:15Z</time>
      </trkpt>
      <trkpt lat="43.32059" lon="-0.57948">
        <ele>152.506348</ele>
        <time>2012-11-16T10:43:24Z</time>
      </trkpt>
      <trkpt lat="43.32089" lon="-0.57858">
        <ele>150.583618</ele>
        <time>2012-11-16T10:43:37Z</time>
      </trkpt>
      <trkpt lat="43.32103" lon="-0.57817">
        <ele>147.699707</ele>
        <time>2012-11-16T10:43:42Z</time>
      </trkpt>
      <trkpt lat="43.32104" lon="-0.57792">
        <ele>147.699707</ele>
        <time>2012-11-16T10:43:50Z</time>
      </trkpt>
      <trkpt lat="43.32104" lon="-0.57792">
        <ele>147.699707</ele>
        <time>2012-11-16T10:43:52Z</time>
      </trkpt>
      <trkpt lat="43.32117" lon="-0.57784">
        <ele>148.18042</ele>
        <time>2012-11-16T10:43:59Z</time>
      </trkpt>
      <trkpt lat="43.32223" lon="-0.57842">
        <ele>148.661011</ele>
        <time>2012-11-16T10:44:21Z</time>
      </trkpt>
      <trkpt lat="43.3226" lon="-0.57862">
        <ele>148.18042</ele>
        <time>2012-11-16T10:44:28Z</time>
      </trkpt>
      <trkpt lat="43.32289" lon="-0.57855">
        <ele>147.699707</ele>
        <time>2012-11-16T10:44:35Z</time>
      </trkpt>
      <trkpt lat="43.32308" lon="-0.57835">
        <ele>147.699707</ele>
        <time>2012-11-16T10:44:41Z</time>
      </trkpt>
      <trkpt lat="43.32328" lon="-0.57769">
        <ele>143.85437</ele>
        <time>2012-11-16T10:44:49Z</time>
      </trkpt>
      <trkpt lat="43.32334" lon="-0.57753">
        <ele>142.893066</ele>
        <time>2012-11-16T10:44:51Z</time>
      </trkpt>
      <trkpt lat="43.32365" lon="-0.57741">
        <ele>141.45105</ele>
        <time>2012-11-16T10:44:57Z</time>
      </trkpt>
      <trkpt lat="43.32388" lon="-0.57747">
        <ele>140.970459</ele>
        <time>2012-11-16T10:45:01Z</time>
      </trkpt>
      <trkpt lat="43.32413" lon="-0.57739">
        <ele>140.489868</ele>
        <time>2012-11-16T10:45:05Z</time>
      </trkpt>
      <trkpt lat="43.32482" lon="-0.57726">
        <ele>136.644653</ele>
        <time>2012-11-16T10:45:14Z</time>
      </trkpt>
      <trkpt lat="43.32522" lon="-0.57702">
        <ele>134.721924</ele>
        <time>2012-11-16T10:45:20Z</time>
      </trkpt>
      <trkpt lat="43.32587" lon="-0.57622">
        <ele>131.837891</ele>
        <time>2012-11-16T10:45:33Z</time>
      </trkpt>
      <trkpt lat="43.32608" lon="-0.57585">
        <ele>131.3573</ele>
        <time>2012-11-16T10:45:39Z</time>
      </trkpt>
      <trkpt lat="43.32616" lon="-0.57552">
        <ele>129.434692</ele>
        <time>2012-11-16T10:45:43Z</time>
      </trkpt>
      <trkpt lat="43.32619" lon="-0.57441">
        <ele>127.992554</ele>
        <time>2012-11-16T10:45:56Z</time>
      </trkpt>
      <trkpt lat="43.32639" lon="-0.5735">
        <ele>127.992554</ele>
        <time>2012-11-16T10:46:08Z</time>
      </trkpt>
      <trkpt lat="43.32654" lon="-0.5721">
        <ele>128.473389</ele>
        <time>2012-11-16T10:46:27Z</time>
      </trkpt>
      <trkpt lat="43.32656" lon="-0.57196">
        <ele>129.434692</ele>
        <time>2012-11-16T10:46:29Z</time>
      </trkpt>
      <trkpt lat="43.32661" lon="-0.57175">
        <ele>130.395996</ele>
        <time>2012-11-16T10:46:33Z</time>
      </trkpt>
      <trkpt lat="43.32674" lon="-0.57156">
        <ele>129.434692</ele>
        <time>2012-11-16T10:46:37Z</time>
      </trkpt>
      <trkpt lat="43.32688" lon="-0.57145">
        <ele>129.915283</ele>
        <time>2012-11-16T10:46:40Z</time>
      </trkpt>
      <trkpt lat="43.32725" lon="-0.57073">
        <ele>130.876709</ele>
        <time>2012-11-16T10:46:55Z</time>
      </trkpt>
      <trkpt lat="43.3275" lon="-0.57051">
        <ele>131.3573</ele>
        <time>2012-11-16T10:47:06Z</time>
      </trkpt>
      <trkpt lat="43.32828" lon="-0.57074">
        <ele>130.876709</ele>
        <time>2012-11-16T10:47:21Z</time>
      </trkpt>
      <trkpt lat="43.32933" lon="-0.57134">
        <ele>130.395996</ele>
        <time>2012-11-16T10:47:42Z</time>
      </trkpt>
      <trkpt lat="43.33049" lon="-0.57161">
        <ele>129.915283</ele>
        <time>2012-11-16T10:48:03Z</time>
      </trkpt>
      <trkpt lat="43.33118" lon="-0.57168">
        <ele>130.395996</ele>
        <time>2012-11-16T10:48:16Z</time>
      </trkpt>
      <trkpt lat="43.33157" lon="-0.57202">
        <ele>128.954102</ele>
        <time>2012-11-16T10:48:25Z</time>
      </trkpt>
      <trkpt lat="43.33162" lon="-0.57204">
        <ele>129.434692</ele>
        <time>2012-11-16T10:48:26Z</time>
      </trkpt>
      <trkpt lat="43.33265" lon="-0.57227">
        <ele>129.915283</ele>
        <time>2012-11-16T10:48:46Z</time>
      </trkpt>
      <trkpt lat="43.33349" lon="-0.5726">
        <ele>130.395996</ele>
        <time>2012-11-16T10:49:03Z</time>
      </trkpt>
      <trkpt lat="43.33379" lon="-0.57261">
        <ele>130.876709</ele>
        <time>2012-11-16T10:49:09Z</time>
      </trkpt>
      <trkpt lat="43.33411" lon="-0.57224">
        <ele>132.799316</ele>
        <time>2012-11-16T10:49:20Z</time>
      </trkpt>
      <trkpt lat="43.33422" lon="-0.57123">
        <ele>135.202515</ele>
        <time>2012-11-16T10:49:42Z</time>
      </trkpt>
      <trkpt lat="43.33429" lon="-0.57071">
        <ele>137.605835</ele>
        <time>2012-11-16T10:49:54Z</time>
      </trkpt>
      <trkpt lat="43.33433" lon="-0.57054">
        <ele>138.086548</ele>
        <time>2012-11-16T10:49:58Z</time>
      </trkpt>
      <trkpt lat="43.33443" lon="-0.56991">
        <ele>140.970459</ele>
        <time>2012-11-16T10:50:13Z</time>
      </trkpt>
      <trkpt lat="43.33458" lon="-0.56932">
        <ele>142.412476</ele>
        <time>2012-11-16T10:50:27Z</time>
      </trkpt>
      <trkpt lat="43.33473" lon="-0.56887">
        <ele>143.85437</ele>
        <time>2012-11-16T10:50:38Z</time>
      </trkpt>
      <trkpt lat="43.33487" lon="-0.56831">
        <ele>145.7771</ele>
        <time>2012-11-16T10:50:51Z</time>
      </trkpt>
      <trkpt lat="43.33498" lon="-0.56775">
        <ele>147.699707</ele>
        <time>2012-11-16T10:51:04Z</time>
      </trkpt>
      <trkpt lat="43.33512" lon="-0.56728">
        <ele>150.583618</ele>
        <time>2012-11-16T10:51:18Z</time>
      </trkpt>
      <trkpt lat="43.33525" lon="-0.56686">
        <ele>152.506348</ele>
        <time>2012-11-16T10:51:31Z</time>
      </trkpt>
      <trkpt lat="43.33534" lon="-0.5664">
        <ele>153.948364</ele>
        <time>2012-11-16T10:51:44Z</time>
      </trkpt>
      <trkpt lat="43.33542" lon="-0.56581">
        <ele>156.351562</ele>
        <time>2012-11-16T10:52:00Z</time>
      </trkpt>
      <trkpt lat="43.33539" lon="-0.56541">
        <ele>159.235474</ele>
        <time>2012-11-16T10:52:12Z</time>
      </trkpt>
      <trkpt lat="43.33541" lon="-0.56526">
        <ele>159.235474</ele>
        <time>2012-11-16T10:52:16Z</time>
      </trkpt>
      <trkpt lat="43.33528" lon="-0.56485">
        <ele>160.67749</ele>
        <time>2012-11-16T10:52:28Z</time>
      </trkpt>
      <trkpt lat="43.33518" lon="-0.56435">
        <ele>164.042114</ele>
        <time>2012-11-16T10:52:42Z</time>
      </trkpt>
      <trkpt lat="43.33509" lon="-0.56386">
        <ele>166.445312</ele>
        <time>2012-11-16T10:52:58Z</time>
      </trkpt>
      <trkpt lat="43.33489" lon="-0.5636">
        <ele>168.368042</ele>
        <time>2012-11-16T10:53:09Z</time>
      </trkpt>
      <trkpt lat="43.33469" lon="-0.56333">
        <ele>169.810059</ele>
        <time>2012-11-16T10:53:20Z</time>
      </trkpt>
      <trkpt lat="43.33465" lon="-0.56324">
        <ele>170.290649</ele>
        <time>2012-11-16T10:53:23Z</time>
      </trkpt>
      <trkpt lat="43.33476" lon="-0.56287">
        <ele>170.771362</ele>
        <time>2012-11-16T10:53:35Z</time>
      </trkpt>
      <trkpt lat="43.33502" lon="-0.56287">
        <ele>173.174683</ele>
        <time>2012-11-16T10:53:44Z</time>
      </trkpt>
      <trkpt lat="43.33546" lon="-0.56309">
        <ele>176.058594</ele>
        <time>2012-11-16T10:54:05Z</time>
      </trkpt>
      <trkpt lat="43.33555" lon="-0.56314">
        <ele>177.50061</ele>
        <time>2012-11-16T10:54:09Z</time>
      </trkpt>
      <trkpt lat="43.33585" lon="-0.56335">
        <ele>180.384521</ele>
        <time>2012-11-16T10:54:25Z</time>
      </trkpt>
      <trkpt lat="43.33617" lon="-0.56358">
        <ele>183.749023</ele>
        <time>2012-11-16T10:54:42Z</time>
      </trkpt>
      <trkpt lat="43.33638" lon="-0.56396">
        <ele>186.152466</ele>
        <time>2012-11-16T10:54:58Z</time>
      </trkpt>
      <trkpt lat="43.33653" lon="-0.56447">
        <ele>188.555786</ele>
        <time>2012-11-16T10:55:17Z</time>
      </trkpt>
      <trkpt lat="43.33668" lon="-0.5649">
        <ele>191.920288</ele>
        <time>2012-11-16T10:55:32Z</time>
      </trkpt>
      <trkpt lat="43.33683" lon="-0.56528">
        <ele>194.804321</ele>
        <time>2012-11-16T10:55:46Z</time>
      </trkpt>
      <trkpt lat="43.33704" lon="-0.56553">
        <ele>197.20752</ele>
        <time>2012-11-16T10:56:00Z</time>
      </trkpt>
      <trkpt lat="43.33717" lon="-0.56529">
        <ele>200.091675</ele>
        <time>2012-11-16T10:56:12Z</time>
      </trkpt>
      <trkpt lat="43.33717" lon="-0.5648">
        <ele>202.014282</ele>
        <time>2012-11-16T10:56:29Z</time>
      </trkpt>
      <trkpt lat="43.33719" lon="-0.5643">
        <ele>203.93689</ele>
        <time>2012-11-16T10:56:45Z</time>
      </trkpt>
      <trkpt lat="43.33709" lon="-0.56385">
        <ele>204.898071</ele>
        <time>2012-11-16T10:56:59Z</time>
      </trkpt>
      <trkpt lat="43.33692" lon="-0.56325">
        <ele>207.301392</ele>
        <time>2012-11-16T10:57:18Z</time>
      </trkpt>
      <trkpt lat="43.3368" lon="-0.5628">
        <ele>210.666016</ele>
        <time>2012-11-16T10:57:34Z</time>
      </trkpt>
      <trkpt lat="43.33679" lon="-0.5625">
        <ele>211.146729</ele>
        <time>2012-11-16T10:57:44Z</time>
      </trkpt>
      <trkpt lat="43.33688" lon="-0.56249">
        <ele>212.588623</ele>
        <time>2012-11-16T10:57:48Z</time>
      </trkpt>
      <trkpt lat="43.33713" lon="-0.56271">
        <ele>215.953247</ele>
        <time>2012-11-16T10:58:02Z</time>
      </trkpt>
      <trkpt lat="43.33715" lon="-0.56273">
        <ele>215.953247</ele>
        <time>2012-11-16T10:58:03Z</time>
      </trkpt>
      <trkpt lat="43.33738" lon="-0.56295">
        <ele>218.83728</ele>
        <time>2012-11-16T10:58:18Z</time>
      </trkpt>
      <trkpt lat="43.33754" lon="-0.56315">
        <ele>222.201782</ele>
        <time>2012-11-16T10:58:30Z</time>
      </trkpt>
      <trkpt lat="43.33773" lon="-0.56357">
        <ele>225.085938</ele>
        <time>2012-11-16T10:58:49Z</time>
      </trkpt>
      <trkpt lat="43.33792" lon="-0.56398">
        <ele>227.969727</ele>
        <time>2012-11-16T10:59:08Z</time>
      </trkpt>
      <trkpt lat="43.33801" lon="-0.5641">
        <ele>231.334351</ele>
        <time>2012-11-16T10:59:15Z</time>
      </trkpt>
      <trkpt lat="43.33804" lon="-0.56414">
        <ele>231.334351</ele>
        <time>2012-11-16T10:59:17Z</time>
      </trkpt>
      <trkpt lat="43.33819" lon="-0.56447">
        <ele>234.218384</ele>
        <time>2012-11-16T10:59:35Z</time>
      </trkpt>
      <trkpt lat="43.33824" lon="-0.56495">
        <ele>235.660278</ele>
        <time>2012-11-16T10:59:52Z</time>
      </trkpt>
      <trkpt lat="43.33843" lon="-0.56573">
        <ele>234.218384</ele>
        <time>2012-11-16T11:00:07Z</time>
      </trkpt>
      <trkpt lat="43.33847" lon="-0.56595">
        <ele>234.218384</ele>
        <time>2012-11-16T11:00:10Z</time>
      </trkpt>
      <trkpt lat="43.33866" lon="-0.56674">
        <ele>233.737671</ele>
        <time>2012-11-16T11:00:25Z</time>
      </trkpt>
      <trkpt lat="43.3388" lon="-0.56741">
        <ele>237.102295</ele>
        <time>2012-11-16T11:00:42Z</time>
      </trkpt>
      <trkpt lat="43.33887" lon="-0.56766">
        <ele>239.505493</ele>
        <time>2012-11-16T11:00:51Z</time>
      </trkpt>
      <trkpt lat="43.33909" lon="-0.56786">
        <ele>242.389648</ele>
        <time>2012-11-16T11:01:05Z</time>
      </trkpt>
      <trkpt lat="43.3395" lon="-0.56786">
        <ele>243.35083</ele>
        <time>2012-11-16T11:01:20Z</time>
      </trkpt>
      <trkpt lat="43.33989" lon="-0.5678">
        <ele>243.35083</ele>
        <time>2012-11-16T11:01:32Z</time>
      </trkpt>
      <trkpt lat="43.34042" lon="-0.56764">
        <ele>242.389648</ele>
        <time>2012-11-16T11:01:49Z</time>
      </trkpt>
      <trkpt lat="43.34078" lon="-0.56745">
        <ele>242.870239</ele>
        <time>2012-11-16T11:02:01Z</time>
      </trkpt>
      <trkpt lat="43.34095" lon="-0.5675">
        <ele>242.389648</ele>
        <time>2012-11-16T11:02:05Z</time>
      </trkpt>
      <trkpt lat="43.34158" lon="-0.56774">
        <ele>238.544312</ele>
        <time>2012-11-16T11:02:15Z</time>
      </trkpt>
      <trkpt lat="43.34233" lon="-0.56817">
        <ele>236.140991</ele>
        <time>2012-11-16T11:02:28Z</time>
      </trkpt>
      <trkpt lat="43.34253" lon="-0.56841">
        <ele>235.179688</ele>
        <time>2012-11-16T11:02:35Z</time>
      </trkpt>
      <trkpt lat="43.34278" lon="-0.56881">
        <ele>234.699097</ele>
        <time>2012-11-16T11:02:44Z</time>
      </trkpt>
      <trkpt lat="43.34311" lon="-0.56941">
        <ele>235.179688</ele>
        <time>2012-11-16T11:02:59Z</time>
      </trkpt>
      <trkpt lat="43.34313" lon="-0.56958">
        <ele>235.660278</ele>
        <time>2012-11-16T11:03:10Z</time>
      </trkpt>
      <trkpt lat="43.3431" lon="-0.56963">
        <ele>235.179688</ele>
        <time>2012-11-16T11:03:34Z</time>
      </trkpt>
      <trkpt lat="43.34311" lon="-0.56959">
        <ele>235.660278</ele>
        <time>2012-11-16T11:04:03Z</time>
      </trkpt>
      <trkpt lat="43.3431" lon="-0.56961">
        <ele>236.140991</ele>
        <time>2012-11-16T11:04:41Z</time>
      </trkpt>
      <trkpt lat="43.34312" lon="-0.5696">
        <ele>236.140991</ele>
        <time>2012-11-16T11:05:09Z</time>
      </trkpt>
      <trkpt lat="43.34314" lon="-0.56961">
        <ele>235.660278</ele>
        <time>2012-11-16T11:05:21Z</time>
      </trkpt>
      <trkpt lat="43.34316" lon="-0.5697">
        <ele>235.660278</ele>
        <time>2012-11-16T11:05:24Z</time>
      </trkpt>
      <trkpt lat="43.34323" lon="-0.56994">
        <ele>234.218384</ele>
        <time>2012-11-16T11:05:28Z</time>
      </trkpt>
      <trkpt lat="43.34355" lon="-0.57053">
        <ele>234.699097</ele>
        <time>2012-11-16T11:05:42Z</time>
      </trkpt>
      <trkpt lat="43.34358" lon="-0.57058">
        <ele>233.737671</ele>
        <time>2012-11-16T11:05:43Z</time>
      </trkpt>
      <trkpt lat="43.34395" lon="-0.57104">
        <ele>232.776489</ele>
        <time>2012-11-16T11:05:56Z</time>
      </trkpt>
      <trkpt lat="43.34402" lon="-0.57108">
        <ele>232.295776</ele>
        <time>2012-11-16T11:05:58Z</time>
      </trkpt>
      <trkpt lat="43.34411" lon="-0.57111">
        <ele>232.295776</ele>
        <time>2012-11-16T11:06:00Z</time>
      </trkpt>
      <trkpt lat="43.3444" lon="-0.5711">
        <ele>230.85376</ele>
        <time>2012-11-16T11:06:05Z</time>
      </trkpt>
      <trkpt lat="43.34473" lon="-0.57119">
        <ele>226.527832</ele>
        <time>2012-11-16T11:06:11Z</time>
      </trkpt>
      <trkpt lat="43.34493" lon="-0.57125">
        <ele>223.643799</ele>
        <time>2012-11-16T11:06:15Z</time>
      </trkpt>
      <trkpt lat="43.34512" lon="-0.57137">
        <ele>221.721191</ele>
        <time>2012-11-16T11:06:19Z</time>
      </trkpt>
      <trkpt lat="43.34525" lon="-0.57144">
        <ele>219.317993</ele>
        <time>2012-11-16T11:06:22Z</time>
      </trkpt>
      <trkpt lat="43.34531" lon="-0.57149">
        <ele>217.875977</ele>
        <time>2012-11-16T11:06:24Z</time>
      </trkpt>
      <trkpt lat="43.34541" lon="-0.57159">
        <ele>214.51123</ele>
        <time>2012-11-16T11:06:28Z</time>
      </trkpt>
      <trkpt lat="43.34545" lon="-0.57162">
        <ele>213.550049</ele>
        <time>2012-11-16T11:06:30Z</time>
      </trkpt>
      <trkpt lat="43.34565" lon="-0.57159">
        <ele>211.146729</ele>
        <time>2012-11-16T11:06:36Z</time>
      </trkpt>
      <trkpt lat="43.3459" lon="-0.57177">
        <ele>207.301392</ele>
        <time>2012-11-16T11:06:41Z</time>
      </trkpt>
      <trkpt lat="43.34615" lon="-0.57198">
        <ele>204.898071</ele>
        <time>2012-11-16T11:06:45Z</time>
      </trkpt>
      <trkpt lat="43.34638" lon="-0.57217">
        <ele>203.456177</ele>
        <time>2012-11-16T11:06:49Z</time>
      </trkpt>
      <trkpt lat="43.34655" lon="-0.57235">
        <ele>202.975464</ele>
        <time>2012-11-16T11:06:53Z</time>
      </trkpt>
      <trkpt lat="43.34672" lon="-0.57258">
        <ele>201.052856</ele>
        <time>2012-11-16T11:06:58Z</time>
      </trkpt>
      <trkpt lat="43.34677" lon="-0.57263">
        <ele>201.052856</ele>
        <time>2012-11-16T11:06:59Z</time>
      </trkpt>
      <trkpt lat="43.34686" lon="-0.57276">
        <ele>199.130127</ele>
        <time>2012-11-16T11:07:02Z</time>
      </trkpt>
      <trkpt lat="43.34732" lon="-0.57317">
        <ele>197.688232</ele>
        <time>2012-11-16T11:07:15Z</time>
      </trkpt>
      <trkpt lat="43.34756" lon="-0.57341">
        <ele>196.726929</ele>
        <time>2012-11-16T11:07:23Z</time>
      </trkpt>
      <trkpt lat="43.3476" lon="-0.57342">
        <ele>195.765625</ele>
        <time>2012-11-16T11:07:25Z</time>
      </trkpt>
      <trkpt lat="43.34764" lon="-0.57337">
        <ele>194.804321</ele>
        <time>2012-11-16T11:07:27Z</time>
      </trkpt>
      <trkpt lat="43.34774" lon="-0.57329">
        <ele>193.362305</ele>
        <time>2012-11-16T11:07:31Z</time>
      </trkpt>
      <trkpt lat="43.34792" lon="-0.57321">
        <ele>189.516968</ele>
        <time>2012-11-16T11:07:37Z</time>
      </trkpt>
      <trkpt lat="43.34801" lon="-0.57317">
        <ele>187.59436</ele>
        <time>2012-11-16T11:07:40Z</time>
      </trkpt>
      <trkpt lat="43.34814" lon="-0.57299">
        <ele>183.268433</ele>
        <time>2012-11-16T11:07:48Z</time>
      </trkpt>
      <trkpt lat="43.34816" lon="-0.57298">
        <ele>183.268433</ele>
        <time>2012-11-16T11:07:49Z</time>
      </trkpt>
      <trkpt lat="43.3483" lon="-0.57298">
        <ele>181.345825</ele>
        <time>2012-11-16T11:07:54Z</time>
      </trkpt>
      <trkpt lat="43.34857" lon="-0.57291">
        <ele>177.981201</ele>
        <time>2012-11-16T11:08:01Z</time>
      </trkpt>
      <trkpt lat="43.34883" lon="-0.5728">
        <ele>175.577881</ele>
        <time>2012-11-16T11:08:09Z</time>
      </trkpt>
      <trkpt lat="43.34884" lon="-0.5727">
        <ele>176.058594</ele>
        <time>2012-11-16T11:08:13Z</time>
      </trkpt>
      <trkpt lat="43.34885" lon="-0.57262">
        <ele>175.577881</ele>
        <time>2012-11-16T11:08:16Z</time>
      </trkpt>
      <trkpt lat="43.34893" lon="-0.57223">
        <ele>173.655273</ele>
        <time>2012-11-16T11:08:25Z</time>
      </trkpt>
      <trkpt lat="43.34895" lon="-0.57215">
        <ele>172.213257</ele>
        <time>2012-11-16T11:08:27Z</time>
      </trkpt>
      <trkpt lat="43.34904" lon="-0.5718">
        <ele>168.368042</ele>
        <time>2012-11-16T11:08:36Z</time>
      </trkpt>
      <trkpt lat="43.34911" lon="-0.57164">
        <ele>165.003418</ele>
        <time>2012-11-16T11:08:40Z</time>
      </trkpt>
      <trkpt lat="43.34915" lon="-0.57155">
        <ele>164.522705</ele>
        <time>2012-11-16T11:08:42Z</time>
      </trkpt>
      <trkpt lat="43.34917" lon="-0.5715">
        <ele>163.080811</ele>
        <time>2012-11-16T11:08:43Z</time>
      </trkpt>
      <trkpt lat="43.34925" lon="-0.57134">
        <ele>160.67749</ele>
        <time>2012-11-16T11:08:46Z</time>
      </trkpt>
      <trkpt lat="43.34931" lon="-0.57113">
        <ele>156.351562</ele>
        <time>2012-11-16T11:08:50Z</time>
      </trkpt>
      <trkpt lat="43.34933" lon="-0.57108">
        <ele>155.870972</ele>
        <time>2012-11-16T11:08:51Z</time>
      </trkpt>
      <trkpt lat="43.34941" lon="-0.57093">
        <ele>151.544922</ele>
        <time>2012-11-16T11:08:55Z</time>
      </trkpt>
      <trkpt lat="43.34946" lon="-0.57069">
        <ele>149.141602</ele>
        <time>2012-11-16T11:09:00Z</time>
      </trkpt>
      <trkpt lat="43.34957" lon="-0.57028">
        <ele>145.7771</ele>
        <time>2012-11-16T11:09:09Z</time>
      </trkpt>
      <trkpt lat="43.34961" lon="-0.57022">
        <ele>144.335205</ele>
        <time>2012-11-16T11:09:11Z</time>
      </trkpt>
      <trkpt lat="43.34975" lon="-0.57009">
        <ele>141.45105</ele>
        <time>2012-11-16T11:09:15Z</time>
      </trkpt>
      <trkpt lat="43.34978" lon="-0.57006">
        <ele>140.970459</ele>
        <time>2012-11-16T11:09:16Z</time>
      </trkpt>
      <trkpt lat="43.34983" lon="-0.57">
        <ele>139.528442</ele>
        <time>2012-11-16T11:09:18Z</time>
      </trkpt>
      <trkpt lat="43.3499" lon="-0.56983">
        <ele>137.125244</ele>
        <time>2012-11-16T11:09:22Z</time>
      </trkpt>
      <trkpt lat="43.34993" lon="-0.56972">
        <ele>136.16394</ele>
        <time>2012-11-16T11:09:24Z</time>
      </trkpt>
      <trkpt lat="43.34992" lon="-0.56939">
        <ele>132.799316</ele>
        <time>2012-11-16T11:09:29Z</time>
      </trkpt>
      <trkpt lat="43.34991" lon="-0.56933">
        <ele>132.799316</ele>
        <time>2012-11-16T11:09:30Z</time>
      </trkpt>
      <trkpt lat="43.34986" lon="-0.56918">
        <ele>130.395996</ele>
        <time>2012-11-16T11:09:33Z</time>
      </trkpt>
      <trkpt lat="43.34977" lon="-0.56909">
        <ele>128.954102</ele>
        <time>2012-11-16T11:09:36Z</time>
      </trkpt>
      <trkpt lat="43.3496" lon="-0.56909">
        <ele>127.511963</ele>
        <time>2012-11-16T11:09:41Z</time>
      </trkpt>
      <trkpt lat="43.34959" lon="-0.56899">
        <ele>125.589355</ele>
        <time>2012-11-16T11:09:46Z</time>
      </trkpt>
      <trkpt lat="43.34971" lon="-0.56889">
        <ele>124.147339</ele>
        <time>2012-11-16T11:09:50Z</time>
      </trkpt>
      <trkpt lat="43.34998" lon="-0.56875">
        <ele>122.224731</ele>
        <time>2012-11-16T11:10:04Z</time>
      </trkpt>
      <trkpt lat="43.35033" lon="-0.56894">
        <ele>121.744141</ele>
        <time>2012-11-16T11:10:17Z</time>
      </trkpt>
      <trkpt lat="43.35062" lon="-0.56906">
        <ele>120.302124</ele>
        <time>2012-11-16T11:10:31Z</time>
      </trkpt>
      <trkpt lat="43.35069" lon="-0.56908">
        <ele>120.782837</ele>
        <time>2012-11-16T11:10:42Z</time>
      </trkpt>
      <trkpt lat="43.35079" lon="-0.56914">
        <ele>121.26355</ele>
        <time>2012-11-16T11:10:49Z</time>
      </trkpt>
      <trkpt lat="43.35083" lon="-0.56914">
        <ele>120.782837</ele>
        <time>2012-11-16T11:10:52Z</time>
      </trkpt>
      <trkpt lat="43.35091" lon="-0.56923">
        <ele>120.302124</ele>
        <time>2012-11-16T11:10:59Z</time>
      </trkpt>
      <trkpt lat="43.3511" lon="-0.56956">
        <ele>120.782837</ele>
        <time>2012-11-16T11:11:14Z</time>
      </trkpt>
      <trkpt lat="43.3514" lon="-0.57006">
        <ele>120.782837</ele>
        <time>2012-11-16T11:11:30Z</time>
      </trkpt>
      <trkpt lat="43.35162" lon="-0.57036">
        <ele>120.782837</ele>
        <time>2012-11-16T11:11:42Z</time>
      </trkpt>
      <trkpt lat="43.35196" lon="-0.57043">
        <ele>120.782837</ele>
        <time>2012-11-16T11:11:54Z</time>
      </trkpt>
      <trkpt lat="43.35228" lon="-0.57032">
        <ele>122.705444</ele>
        <time>2012-11-16T11:12:06Z</time>
      </trkpt>
      <trkpt lat="43.35275" lon="-0.57003">
        <ele>121.744141</ele>
        <time>2012-11-16T11:12:19Z</time>
      </trkpt>
      <trkpt lat="43.35351" lon="-0.56963">
        <ele>121.26355</ele>
        <time>2012-11-16T11:12:38Z</time>
      </trkpt>
      <trkpt lat="43.35382" lon="-0.56945">
        <ele>121.26355</ele>
        <time>2012-11-16T11:12:45Z</time>
      </trkpt>
      <trkpt lat="43.354" lon="-0.56932">
        <ele>121.26355</ele>
        <time>2012-11-16T11:12:49Z</time>
      </trkpt>
      <trkpt lat="43.35496" lon="-0.56871">
        <ele>120.782837</ele>
        <time>2012-11-16T11:13:10Z</time>
      </trkpt>
      <trkpt lat="43.35516" lon="-0.56853">
        <ele>120.782837</ele>
        <time>2012-11-16T11:13:15Z</time>
      </trkpt>
      <trkpt lat="43.35527" lon="-0.56831">
        <ele>120.782837</ele>
        <time>2012-11-16T11:13:20Z</time>
      </trkpt>
      <trkpt lat="43.35525" lon="-0.56833">
        <ele>120.782837</ele>
        <time>2012-11-16T11:13:26Z</time>
      </trkpt>
      <trkpt lat="43.35529" lon="-0.56849">
        <ele>121.744141</ele>
        <time>2012-11-16T11:13:30Z</time>
      </trkpt>
      <trkpt lat="43.35549" lon="-0.56853">
        <ele>121.744141</ele>
        <time>2012-11-16T11:13:36Z</time>
      </trkpt>
      <trkpt lat="43.35623" lon="-0.56804">
        <ele>120.782837</ele>
        <time>2012-11-16T11:13:54Z</time>
      </trkpt>
      <trkpt lat="43.35698" lon="-0.56753">
        <ele>120.782837</ele>
        <time>2012-11-16T11:14:13Z</time>
      </trkpt>
      <trkpt lat="43.35725" lon="-0.5673">
        <ele>121.26355</ele>
        <time>2012-11-16T11:14:21Z</time>
      </trkpt>
      <trkpt lat="43.35724" lon="-0.56696">
        <ele>121.744141</ele>
        <time>2012-11-16T11:14:27Z</time>
      </trkpt>
      <trkpt lat="43.35694" lon="-0.56607">
        <ele>122.224731</ele>
        <time>2012-11-16T11:14:42Z</time>
      </trkpt>
      <trkpt lat="43.35693" lon="-0.56575">
        <ele>122.224731</ele>
        <time>2012-11-16T11:14:47Z</time>
      </trkpt>
      <trkpt lat="43.35698" lon="-0.56558">
        <ele>122.705444</ele>
        <time>2012-11-16T11:14:50Z</time>
      </trkpt>
      <trkpt lat="43.35693" lon="-0.56501">
        <ele>122.224731</ele>
        <time>2012-11-16T11:14:59Z</time>
      </trkpt>
      <trkpt lat="43.35684" lon="-0.56463">
        <ele>122.224731</ele>
        <time>2012-11-16T11:15:05Z</time>
      </trkpt>
      <trkpt lat="43.35679" lon="-0.56418">
        <ele>122.705444</ele>
        <time>2012-11-16T11:15:12Z</time>
      </trkpt>
      <trkpt lat="43.35671" lon="-0.56338">
        <ele>123.186157</ele>
        <time>2012-11-16T11:15:26Z</time>
      </trkpt>
      <trkpt lat="43.35681" lon="-0.56304">
        <ele>123.186157</ele>
        <time>2012-11-16T11:15:32Z</time>
      </trkpt>
      <trkpt lat="43.35748" lon="-0.56238">
        <ele>122.705444</ele>
        <time>2012-11-16T11:15:51Z</time>
      </trkpt>
      <trkpt lat="43.35749" lon="-0.56223">
        <ele>122.705444</ele>
        <time>2012-11-16T11:15:54Z</time>
      </trkpt>
      <trkpt lat="43.3574" lon="-0.56204">
        <ele>122.705444</ele>
        <time>2012-11-16T11:15:58Z</time>
      </trkpt>
      <trkpt lat="43.35737" lon="-0.56177">
        <ele>122.224731</ele>
        <time>2012-11-16T11:16:03Z</time>
      </trkpt>
      <trkpt lat="43.35745" lon="-0.56144">
        <ele>122.224731</ele>
        <time>2012-11-16T11:16:09Z</time>
      </trkpt>
      <trkpt lat="43.35741" lon="-0.56115">
        <ele>123.186157</ele>
        <time>2012-11-16T11:16:14Z</time>
      </trkpt>
      <trkpt lat="43.35728" lon="-0.56083">
        <ele>123.186157</ele>
        <time>2012-11-16T11:16:20Z</time>
      </trkpt>
      <trkpt lat="43.35687" lon="-0.56035">
        <ele>125.108765</ele>
        <time>2012-11-16T11:16:33Z</time>
      </trkpt>
      <trkpt lat="43.35629" lon="-0.56009">
        <ele>124.147339</ele>
        <time>2012-11-16T11:16:47Z</time>
      </trkpt>
      <trkpt lat="43.3559" lon="-0.55923">
        <ele>124.147339</ele>
        <time>2012-11-16T11:17:03Z</time>
      </trkpt>
      <trkpt lat="43.35569" lon="-0.55846">
        <ele>124.628052</ele>
        <time>2012-11-16T11:17:16Z</time>
      </trkpt>
      <trkpt lat="43.35506" lon="-0.55742">
        <ele>125.108765</ele>
        <time>2012-11-16T11:17:38Z</time>
      </trkpt>
      <trkpt lat="43.35471" lon="-0.55686">
        <ele>128.473389</ele>
        <time>2012-11-16T11:17:51Z</time>
      </trkpt>
      <trkpt lat="43.35469" lon="-0.55682">
        <ele>128.473389</ele>
        <time>2012-11-16T11:17:52Z</time>
      </trkpt>
      <trkpt lat="43.35441" lon="-0.55642">
        <ele>127.992554</ele>
        <time>2012-11-16T11:18:01Z</time>
      </trkpt>
      <trkpt lat="43.35421" lon="-0.55578">
        <ele>127.511963</ele>
        <time>2012-11-16T11:18:11Z</time>
      </trkpt>
      <trkpt lat="43.35414" lon="-0.55561">
        <ele>127.992554</ele>
        <time>2012-11-16T11:18:14Z</time>
      </trkpt>
      <trkpt lat="43.35389" lon="-0.55532">
        <ele>127.992554</ele>
        <time>2012-11-16T11:18:21Z</time>
      </trkpt>
      <trkpt lat="43.35368" lon="-0.55521">
        <ele>127.031372</ele>
        <time>2012-11-16T11:18:25Z</time>
      </trkpt>
      <trkpt lat="43.35349" lon="-0.55517">
        <ele>125.589355</ele>
        <time>2012-11-16T11:18:28Z</time>
      </trkpt>
      <trkpt lat="43.3533" lon="-0.55507">
        <ele>125.108765</ele>
        <time>2012-11-16T11:18:31Z</time>
      </trkpt>
      <trkpt lat="43.35315" lon="-0.55493">
        <ele>124.628052</ele>
        <time>2012-11-16T11:18:34Z</time>
      </trkpt>
      <trkpt lat="43.35261" lon="-0.55405">
        <ele>125.589355</ele>
        <time>2012-11-16T11:18:50Z</time>
      </trkpt>
      <trkpt lat="43.35227" lon="-0.55345">
        <ele>124.628052</ele>
        <time>2012-11-16T11:19:01Z</time>
      </trkpt>
      <trkpt lat="43.35222" lon="-0.5532">
        <ele>125.589355</ele>
        <time>2012-11-16T11:19:05Z</time>
      </trkpt>
      <trkpt lat="43.35218" lon="-0.55236">
        <ele>127.992554</ele>
        <time>2012-11-16T11:19:21Z</time>
      </trkpt>
      <trkpt lat="43.35186" lon="-0.55178">
        <ele>128.954102</ele>
        <time>2012-11-16T11:19:35Z</time>
      </trkpt>
      <trkpt lat="43.35165" lon="-0.55139">
        <ele>129.434692</ele>
        <time>2012-11-16T11:19:45Z</time>
      </trkpt>
      <trkpt lat="43.35104" lon="-0.55107">
        <ele>129.434692</ele>
        <time>2012-11-16T11:20:01Z</time>
      </trkpt>
      <trkpt lat="43.3504" lon="-0.55072">
        <ele>128.473389</ele>
        <time>2012-11-16T11:20:16Z</time>
      </trkpt>
      <trkpt lat="43.3501" lon="-0.55039">
        <ele>128.473389</ele>
        <time>2012-11-16T11:20:24Z</time>
      </trkpt>
      <trkpt lat="43.34956" lon="-0.54948">
        <ele>128.954102</ele>
        <time>2012-11-16T11:20:42Z</time>
      </trkpt>
      <trkpt lat="43.34924" lon="-0.54912">
        <ele>131.3573</ele>
        <time>2012-11-16T11:20:54Z</time>
      </trkpt>
      <trkpt lat="43.34896" lon="-0.54898">
        <ele>131.3573</ele>
        <time>2012-11-16T11:21:01Z</time>
      </trkpt>
      <trkpt lat="43.3485" lon="-0.5489">
        <ele>130.876709</ele>
        <time>2012-11-16T11:21:11Z</time>
      </trkpt>
      <trkpt lat="43.34825" lon="-0.54853">
        <ele>129.434692</ele>
        <time>2012-11-16T11:21:19Z</time>
      </trkpt>
      <trkpt lat="43.34779" lon="-0.54794">
        <ele>130.876709</ele>
        <time>2012-11-16T11:21:34Z</time>
      </trkpt>
      <trkpt lat="43.34752" lon="-0.54758">
        <ele>133.760498</ele>
        <time>2012-11-16T11:21:47Z</time>
      </trkpt>
      <trkpt lat="43.34695" lon="-0.54709">
        <ele>134.241211</ele>
        <time>2012-11-16T11:22:04Z</time>
      </trkpt>
      <trkpt lat="43.34683" lon="-0.54697">
        <ele>133.760498</ele>
        <time>2012-11-16T11:22:07Z</time>
      </trkpt>
      <trkpt lat="43.34663" lon="-0.54682">
        <ele>135.202515</ele>
        <time>2012-11-16T11:22:12Z</time>
      </trkpt>
      <trkpt lat="43.3464" lon="-0.54672">
        <ele>135.202515</ele>
        <time>2012-11-16T11:22:20Z</time>
      </trkpt>
      <trkpt lat="43.34625" lon="-0.54669">
        <ele>134.721924</ele>
        <time>2012-11-16T11:22:23Z</time>
      </trkpt>
      <trkpt lat="43.34598" lon="-0.54628">
        <ele>132.318604</ele>
        <time>2012-11-16T11:22:30Z</time>
      </trkpt>
      <trkpt lat="43.34586" lon="-0.54574">
        <ele>131.3573</ele>
        <time>2012-11-16T11:22:37Z</time>
      </trkpt>
      <trkpt lat="43.3455" lon="-0.54551">
        <ele>131.3573</ele>
        <time>2012-11-16T11:22:46Z</time>
      </trkpt>
      <trkpt lat="43.34541" lon="-0.54554">
        <ele>131.3573</ele>
        <time>2012-11-16T11:22:48Z</time>
      </trkpt>
      <trkpt lat="43.34517" lon="-0.54551">
        <ele>131.3573</ele>
        <time>2012-11-16T11:22:53Z</time>
      </trkpt>
      <trkpt lat="43.34488" lon="-0.54532">
        <ele>129.915283</ele>
        <time>2012-11-16T11:22:59Z</time>
      </trkpt>
      <trkpt lat="43.34442" lon="-0.54509">
        <ele>129.434692</ele>
        <time>2012-11-16T11:23:08Z</time>
      </trkpt>
      <trkpt lat="43.34406" lon="-0.54501">
        <ele>128.954102</ele>
        <time>2012-11-16T11:23:15Z</time>
      </trkpt>
      <trkpt lat="43.34386" lon="-0.54489">
        <ele>128.473389</ele>
        <time>2012-11-16T11:23:19Z</time>
      </trkpt>
      <trkpt lat="43.34346" lon="-0.54446">
        <ele>127.511963</ele>
        <time>2012-11-16T11:23:28Z</time>
      </trkpt>
      <trkpt lat="43.34326" lon="-0.5442">
        <ele>127.992554</ele>
        <time>2012-11-16T11:23:33Z</time>
      </trkpt>
      <trkpt lat="43.34294" lon="-0.54321">
        <ele>129.915283</ele>
        <time>2012-11-16T11:23:49Z</time>
      </trkpt>
      <trkpt lat="43.34289" lon="-0.54309">
        <ele>129.434692</ele>
        <time>2012-11-16T11:23:51Z</time>
      </trkpt>
      <trkpt lat="43.34257" lon="-0.54258">
        <ele>128.473389</ele>
        <time>2012-11-16T11:24:00Z</time>
      </trkpt>
      <trkpt lat="43.3423" lon="-0.54231">
        <ele>127.031372</ele>
        <time>2012-11-16T11:24:06Z</time>
      </trkpt>
      <trkpt lat="43.34158" lon="-0.54186">
        <ele>127.511963</ele>
        <time>2012-11-16T11:24:21Z</time>
      </trkpt>
      <trkpt lat="43.3412" lon="-0.54148">
        <ele>130.876709</ele>
        <time>2012-11-16T11:24:34Z</time>
      </trkpt>
      <trkpt lat="43.34085" lon="-0.54098">
        <ele>132.318604</ele>
        <time>2012-11-16T11:24:48Z</time>
      </trkpt>
      <trkpt lat="43.34037" lon="-0.54025">
        <ele>133.760498</ele>
        <time>2012-11-16T11:25:05Z</time>
      </trkpt>
      <trkpt lat="43.33974" lon="-0.53966">
        <ele>131.3573</ele>
        <time>2012-11-16T11:25:20Z</time>
      </trkpt>
      <trkpt lat="43.33889" lon="-0.53908">
        <ele>129.915283</ele>
        <time>2012-11-16T11:25:37Z</time>
      </trkpt>
      <trkpt lat="43.33868" lon="-0.53899">
        <ele>129.434692</ele>
        <time>2012-11-16T11:25:41Z</time>
      </trkpt>
      <trkpt lat="43.33842" lon="-0.53879">
        <ele>130.395996</ele>
        <time>2012-11-16T11:25:47Z</time>
      </trkpt>
      <trkpt lat="43.33803" lon="-0.53826">
        <ele>130.876709</ele>
        <time>2012-11-16T11:25:59Z</time>
      </trkpt>
      <trkpt lat="43.33791" lon="-0.53804">
        <ele>131.837891</ele>
        <time>2012-11-16T11:26:03Z</time>
      </trkpt>
      <trkpt lat="43.33738" lon="-0.53723">
        <ele>129.915283</ele>
        <time>2012-11-16T11:26:17Z</time>
      </trkpt>
      <trkpt lat="43.33678" lon="-0.53633">
        <ele>131.3573</ele>
        <time>2012-11-16T11:26:34Z</time>
      </trkpt>
      <trkpt lat="43.33655" lon="-0.53589">
        <ele>131.3573</ele>
        <time>2012-11-16T11:26:42Z</time>
      </trkpt>
      <trkpt lat="43.33598" lon="-0.53529">
        <ele>130.395996</ele>
        <time>2012-11-16T11:26:56Z</time>
      </trkpt>
      <trkpt lat="43.33584" lon="-0.53522">
        <ele>130.395996</ele>
        <time>2012-11-16T11:26:59Z</time>
      </trkpt>
      <trkpt lat="43.3351" lon="-0.53502">
        <ele>130.876709</ele>
        <time>2012-11-16T11:27:14Z</time>
      </trkpt>
      <trkpt lat="43.33437" lon="-0.53474">
        <ele>131.3573</ele>
        <time>2012-11-16T11:27:29Z</time>
      </trkpt>
      <trkpt lat="43.33385" lon="-0.53435">
        <ele>133.760498</ele>
        <time>2012-11-16T11:27:43Z</time>
      </trkpt>
      <trkpt lat="43.33359" lon="-0.53384">
        <ele>134.241211</ele>
        <time>2012-11-16T11:27:55Z</time>
      </trkpt>
      <trkpt lat="43.33357" lon="-0.53381">
        <ele>134.241211</ele>
        <time>2012-11-16T11:27:56Z</time>
      </trkpt>
      <trkpt lat="43.33338" lon="-0.53394">
        <ele>133.760498</ele>
        <time>2012-11-16T11:28:04Z</time>
      </trkpt>
      <trkpt lat="43.33343" lon="-0.53392">
        <ele>133.760498</ele>
        <time>2012-11-16T11:28:09Z</time>
      </trkpt>
      <trkpt lat="43.33352" lon="-0.5338">
        <ele>133.279907</ele>
        <time>2012-11-16T11:28:16Z</time>
      </trkpt>
      <trkpt lat="43.33363" lon="-0.53382">
        <ele>134.241211</ele>
        <time>2012-11-16T11:28:26Z</time>
      </trkpt>
      <trkpt lat="43.33345" lon="-0.53383">
        <ele>134.241211</ele>
        <time>2012-11-16T11:28:33Z</time>
      </trkpt>
      <trkpt lat="43.33285" lon="-0.53466">
        <ele>132.799316</ele>
        <time>2012-11-16T11:28:51Z</time>
      </trkpt>
      <trkpt lat="43.33184" lon="-0.53596">
        <ele>132.799316</ele>
        <time>2012-11-16T11:29:17Z</time>
      </trkpt>
      <trkpt lat="43.33107" lon="-0.53687">
        <ele>132.318604</ele>
        <time>2012-11-16T11:29:36Z</time>
      </trkpt>
      <trkpt lat="43.3301" lon="-0.53748">
        <ele>132.318604</ele>
        <time>2012-11-16T11:29:56Z</time>
      </trkpt>
      <trkpt lat="43.32948" lon="-0.53799">
        <ele>132.799316</ele>
        <time>2012-11-16T11:30:11Z</time>
      </trkpt>
      <trkpt lat="43.32936" lon="-0.53819">
        <ele>132.799316</ele>
        <time>2012-11-16T11:30:15Z</time>
      </trkpt>
      <trkpt lat="43.32887" lon="-0.53947">
        <ele>133.760498</ele>
        <time>2012-11-16T11:30:37Z</time>
      </trkpt>
      <trkpt lat="43.32848" lon="-0.54043">
        <ele>135.683105</ele>
        <time>2012-11-16T11:30:57Z</time>
      </trkpt>
      <trkpt lat="43.32793" lon="-0.54129">
        <ele>138.567261</ele>
        <time>2012-11-16T11:31:19Z</time>
      </trkpt>
      <trkpt lat="43.32759" lon="-0.5418">
        <ele>141.931763</ele>
        <time>2012-11-16T11:31:34Z</time>
      </trkpt>
      <trkpt lat="43.32707" lon="-0.54252">
        <ele>142.893066</ele>
        <time>2012-11-16T11:31:56Z</time>
      </trkpt>
      <trkpt lat="43.32637" lon="-0.54324">
        <ele>146.257812</ele>
        <time>2012-11-16T11:32:21Z</time>
      </trkpt>
      <trkpt lat="43.3262" lon="-0.54345">
        <ele>146.257812</ele>
        <time>2012-11-16T11:32:33Z</time>
      </trkpt>
      <trkpt lat="43.32603" lon="-0.54357">
        <ele>146.738403</ele>
        <time>2012-11-16T11:32:45Z</time>
      </trkpt>
      <trkpt lat="43.32599" lon="-0.54359">
        <ele>146.738403</ele>
        <time>2012-11-16T11:32:47Z</time>
      </trkpt>
      <trkpt lat="43.32594" lon="-0.54363">
        <ele>147.699707</ele>
        <time>2012-11-16T11:32:50Z</time>
      </trkpt>
      <trkpt lat="43.32594" lon="-0.54365">
        <ele>146.738403</ele>
        <time>2012-11-16T11:32:52Z</time>
      </trkpt>
      <trkpt lat="43.326" lon="-0.54362">
        <ele>146.738403</ele>
        <time>2012-11-16T11:32:56Z</time>
      </trkpt>
      <trkpt lat="43.32641" lon="-0.54316">
        <ele>146.257812</ele>
        <time>2012-11-16T11:33:10Z</time>
      </trkpt>
      <trkpt lat="43.32709" lon="-0.54242">
        <ele>143.373657</ele>
        <time>2012-11-16T11:33:26Z</time>
      </trkpt>
      <trkpt lat="43.328" lon="-0.54111">
        <ele>140.489868</ele>
        <time>2012-11-16T11:33:45Z</time>
      </trkpt>
      <trkpt lat="43.3283" lon="-0.54065">
        <ele>137.125244</ele>
        <time>2012-11-16T11:33:51Z</time>
      </trkpt>
      <trkpt lat="43.32854" lon="-0.54027">
        <ele>136.644653</ele>
        <time>2012-11-16T11:33:56Z</time>
      </trkpt>
      <trkpt lat="43.32909" lon="-0.53887">
        <ele>133.279907</ele>
        <time>2012-11-16T11:34:13Z</time>
      </trkpt>
      <trkpt lat="43.32969" lon="-0.53774">
        <ele>133.279907</ele>
        <time>2012-11-16T11:34:29Z</time>
      </trkpt>
      <trkpt lat="43.33055" lon="-0.53717">
        <ele>132.318604</ele>
        <time>2012-11-16T11:34:44Z</time>
      </trkpt>
      <trkpt lat="43.33132" lon="-0.53659">
        <ele>131.837891</ele>
        <time>2012-11-16T11:35:00Z</time>
      </trkpt>
      <trkpt lat="43.33197" lon="-0.53577">
        <ele>132.799316</ele>
        <time>2012-11-16T11:35:18Z</time>
      </trkpt>
      <trkpt lat="43.33279" lon="-0.53469">
        <ele>132.318604</ele>
        <time>2012-11-16T11:35:39Z</time>
      </trkpt>
      <trkpt lat="43.3335" lon="-0.53376">
        <ele>133.760498</ele>
        <time>2012-11-16T11:36:02Z</time>
      </trkpt>
      <trkpt lat="43.33397" lon="-0.53313">
        <ele>135.683105</ele>
        <time>2012-11-16T11:36:22Z</time>
      </trkpt>
      <trkpt lat="43.33439" lon="-0.5326">
        <ele>138.567261</ele>
        <time>2012-11-16T11:36:42Z</time>
      </trkpt>
      <trkpt lat="43.33478" lon="-0.53203">
        <ele>138.567261</ele>
        <time>2012-11-16T11:37:02Z</time>
      </trkpt>
      <trkpt lat="43.33472" lon="-0.53192">
        <ele>138.567261</ele>
        <time>2012-11-16T11:37:06Z</time>
      </trkpt>
      <trkpt lat="43.33478" lon="-0.53199">
        <ele>138.567261</ele>
        <time>2012-11-16T11:37:14Z</time>
      </trkpt>
      <trkpt lat="43.33487" lon="-0.53201">
        <ele>139.047852</ele>
        <time>2012-11-16T11:37:20Z</time>
      </trkpt>
      <trkpt lat="43.3349" lon="-0.53198">
        <ele>138.567261</ele>
        <time>2012-11-16T11:37:22Z</time>
      </trkpt>
      <trkpt lat="43.33482" lon="-0.53202">
        <ele>138.567261</ele>
        <time>2012-11-16T11:37:27Z</time>
      </trkpt>
      <trkpt lat="43.3343" lon="-0.53274">
        <ele>137.125244</ele>
        <time>2012-11-16T11:37:45Z</time>
      </trkpt>
      <trkpt lat="43.33371" lon="-0.53351">
        <ele>136.16394</ele>
        <time>2012-11-16T11:38:01Z</time>
      </trkpt>
      <trkpt lat="43.33363" lon="-0.5336">
        <ele>137.125244</ele>
        <time>2012-11-16T11:38:03Z</time>
      </trkpt>
      <trkpt lat="43.33361" lon="-0.53386">
        <ele>135.202515</ele>
        <time>2012-11-16T11:38:07Z</time>
      </trkpt>
      <trkpt lat="43.33378" lon="-0.53419">
        <ele>133.760498</ele>
        <time>2012-11-16T11:38:15Z</time>
      </trkpt>
      <trkpt lat="43.33378" lon="-0.53422">
        <ele>134.241211</ele>
        <time>2012-11-16T11:38:17Z</time>
      </trkpt>
      <trkpt lat="43.33374" lon="-0.53417">
        <ele>134.241211</ele>
        <time>2012-11-16T11:38:21Z</time>
      </trkpt>
      <trkpt lat="43.33357" lon="-0.5338">
        <ele>135.202515</ele>
        <time>2012-11-16T11:38:32Z</time>
      </trkpt>
      <trkpt lat="43.33332" lon="-0.53406">
        <ele>134.241211</ele>
        <time>2012-11-16T11:38:41Z</time>
      </trkpt>
      <trkpt lat="43.33248" lon="-0.53514">
        <ele>132.318604</ele>
        <time>2012-11-16T11:39:04Z</time>
      </trkpt>
      <trkpt lat="43.3316" lon="-0.53628">
        <ele>133.279907</ele>
        <time>2012-11-16T11:39:30Z</time>
      </trkpt>
      <trkpt lat="43.33127" lon="-0.53669">
        <ele>133.279907</ele>
        <time>2012-11-16T11:39:39Z</time>
      </trkpt>
      <trkpt lat="43.33102" lon="-0.53689">
        <ele>132.799316</ele>
        <time>2012-11-16T11:39:45Z</time>
      </trkpt>
      <trkpt lat="43.33013" lon="-0.53747">
        <ele>133.279907</ele>
        <time>2012-11-16T11:40:06Z</time>
      </trkpt>
      <trkpt lat="43.32946" lon="-0.53803">
        <ele>132.799316</ele>
        <time>2012-11-16T11:40:25Z</time>
      </trkpt>
      <trkpt lat="43.32935" lon="-0.53823">
        <ele>132.799316</ele>
        <time>2012-11-16T11:40:31Z</time>
      </trkpt>
      <trkpt lat="43.32936" lon="-0.53812">
        <ele>132.318604</ele>
        <time>2012-11-16T11:40:37Z</time>
      </trkpt>
      <trkpt lat="43.32996" lon="-0.53753">
        <ele>132.799316</ele>
        <time>2012-11-16T11:40:55Z</time>
      </trkpt>
      <trkpt lat="43.33094" lon="-0.53691">
        <ele>131.837891</ele>
        <time>2012-11-16T11:41:18Z</time>
      </trkpt>
      <trkpt lat="43.33169" lon="-0.53614">
        <ele>132.318604</ele>
        <time>2012-11-16T11:41:39Z</time>
      </trkpt>
      <trkpt lat="43.33197" lon="-0.53575">
        <ele>131.3573</ele>
        <time>2012-11-16T11:41:48Z</time>
      </trkpt>
      <trkpt lat="43.33273" lon="-0.53476">
        <ele>131.3573</ele>
        <time>2012-11-16T11:42:10Z</time>
      </trkpt>
      <trkpt lat="43.3334" lon="-0.53395">
        <ele>133.760498</ele>
        <time>2012-11-16T11:42:31Z</time>
      </trkpt>
      <trkpt lat="43.33355" lon="-0.53377">
        <ele>133.760498</ele>
        <time>2012-11-16T11:42:36Z</time>
      </trkpt>
      <trkpt lat="43.33369" lon="-0.53402">
        <ele>133.760498</ele>
        <time>2012-11-16T11:42:43Z</time>
      </trkpt>
      <trkpt lat="43.33375" lon="-0.53416">
        <ele>134.241211</ele>
        <time>2012-11-16T11:42:46Z</time>
      </trkpt>
      <trkpt lat="43.33408" lon="-0.53452">
        <ele>133.279907</ele>
        <time>2012-11-16T11:42:56Z</time>
      </trkpt>
      <trkpt lat="43.33421" lon="-0.53463">
        <ele>132.799316</ele>
        <time>2012-11-16T11:42:59Z</time>
      </trkpt>
      <trkpt lat="43.33439" lon="-0.53474">
        <ele>132.318604</ele>
        <time>2012-11-16T11:43:03Z</time>
      </trkpt>
      <trkpt lat="43.33518" lon="-0.53506">
        <ele>131.837891</ele>
        <time>2012-11-16T11:43:21Z</time>
      </trkpt>
      <trkpt lat="43.33562" lon="-0.53519">
        <ele>130.876709</ele>
        <time>2012-11-16T11:43:31Z</time>
      </trkpt>
      <trkpt lat="43.3358" lon="-0.53525">
        <ele>130.876709</ele>
        <time>2012-11-16T11:43:35Z</time>
      </trkpt>
      <trkpt lat="43.3362" lon="-0.53554">
        <ele>131.837891</ele>
        <time>2012-11-16T11:43:45Z</time>
      </trkpt>
      <trkpt lat="43.33643" lon="-0.53579">
        <ele>132.318604</ele>
        <time>2012-11-16T11:43:52Z</time>
      </trkpt>
      <trkpt lat="43.3365" lon="-0.53586">
        <ele>132.318604</ele>
        <time>2012-11-16T11:43:54Z</time>
      </trkpt>
      <trkpt lat="43.33667" lon="-0.5362">
        <ele>132.318604</ele>
        <time>2012-11-16T11:44:01Z</time>
      </trkpt>
      <trkpt lat="43.33678" lon="-0.5364">
        <ele>132.318604</ele>
        <time>2012-11-16T11:44:05Z</time>
      </trkpt>
      <trkpt lat="43.33736" lon="-0.53725">
        <ele>130.876709</ele>
        <time>2012-11-16T11:44:23Z</time>
      </trkpt>
      <trkpt lat="43.33753" lon="-0.53747">
        <ele>131.3573</ele>
        <time>2012-11-16T11:44:28Z</time>
      </trkpt>
      <trkpt lat="43.33763" lon="-0.53764">
        <ele>130.876709</ele>
        <time>2012-11-16T11:44:32Z</time>
      </trkpt>
      <trkpt lat="43.33771" lon="-0.53777">
        <ele>131.837891</ele>
        <time>2012-11-16T11:44:35Z</time>
      </trkpt>
      <trkpt lat="43.3379" lon="-0.53807">
        <ele>132.318604</ele>
        <time>2012-11-16T11:44:42Z</time>
      </trkpt>
      <trkpt lat="43.33824" lon="-0.53853">
        <ele>131.837891</ele>
        <time>2012-11-16T11:44:53Z</time>
      </trkpt>
      <trkpt lat="43.33831" lon="-0.53861">
        <ele>131.3573</ele>
        <time>2012-11-16T11:44:55Z</time>
      </trkpt>
      <trkpt lat="43.33867" lon="-0.53893">
        <ele>130.876709</ele>
        <time>2012-11-16T11:45:03Z</time>
      </trkpt>
      <trkpt lat="43.33931" lon="-0.53934">
        <ele>130.876709</ele>
        <time>2012-11-16T11:45:19Z</time>
      </trkpt>
      <trkpt lat="43.3397" lon="-0.53968">
        <ele>131.837891</ele>
        <time>2012-11-16T11:45:30Z</time>
      </trkpt>
      <trkpt lat="43.3403" lon="-0.54016">
        <ele>134.241211</ele>
        <time>2012-11-16T11:45:47Z</time>
      </trkpt>
      <trkpt lat="43.34051" lon="-0.54043">
        <ele>134.241211</ele>
        <time>2012-11-16T11:45:58Z</time>
      </trkpt>
      <trkpt lat="43.34029" lon="-0.54011">
        <ele>134.721924</ele>
        <time>2012-11-16T11:46:12Z</time>
      </trkpt>
      <trkpt lat="43.33991" lon="-0.53977">
        <ele>134.241211</ele>
        <time>2012-11-16T11:46:24Z</time>
      </trkpt>
      <trkpt lat="43.33935" lon="-0.53933">
        <ele>131.837891</ele>
        <time>2012-11-16T11:46:38Z</time>
      </trkpt>
      <trkpt lat="43.33921" lon="-0.53927">
        <ele>131.3573</ele>
        <time>2012-11-16T11:46:46Z</time>
      </trkpt>
      <trkpt lat="43.33943" lon="-0.53945">
        <ele>132.799316</ele>
        <time>2012-11-16T11:46:56Z</time>
      </trkpt>
      <trkpt lat="43.33971" lon="-0.53968">
        <ele>133.760498</ele>
        <time>2012-11-16T11:47:05Z</time>
      </trkpt>
      <trkpt lat="43.34002" lon="-0.53992">
        <ele>133.760498</ele>
        <time>2012-11-16T11:47:18Z</time>
      </trkpt>
      <trkpt lat="43.34024" lon="-0.54006">
        <ele>134.241211</ele>
        <time>2012-11-16T11:47:32Z</time>
      </trkpt>
      <trkpt lat="43.34032" lon="-0.54016">
        <ele>134.721924</ele>
        <time>2012-11-16T11:47:42Z</time>
      </trkpt>
      <trkpt lat="43.34028" lon="-0.5401">
        <ele>135.202515</ele>
        <time>2012-11-16T11:47:46Z</time>
      </trkpt>
      <trkpt lat="43.34004" lon="-0.53989">
        <ele>133.760498</ele>
        <time>2012-11-16T11:48:02Z</time>
      </trkpt>
      <trkpt lat="43.33995" lon="-0.53981">
        <ele>133.760498</ele>
        <time>2012-11-16T11:48:13Z</time>
      </trkpt>
      <trkpt lat="43.33982" lon="-0.53971">
        <ele>133.279907</ele>
        <time>2012-11-16T11:48:17Z</time>
      </trkpt>
      <trkpt lat="43.33934" lon="-0.53933">
        <ele>132.318604</ele>
        <time>2012-11-16T11:48:31Z</time>
      </trkpt>
      <trkpt lat="43.33908" lon="-0.53915">
        <ele>131.837891</ele>
        <time>2012-11-16T11:48:38Z</time>
      </trkpt>
      <trkpt lat="43.33855" lon="-0.53889">
        <ele>131.837891</ele>
        <time>2012-11-16T11:48:53Z</time>
      </trkpt>
      <trkpt lat="43.33821" lon="-0.53854">
        <ele>132.799316</ele>
        <time>2012-11-16T11:49:04Z</time>
      </trkpt>
      <trkpt lat="43.3379" lon="-0.53804">
        <ele>133.279907</ele>
        <time>2012-11-16T11:49:16Z</time>
      </trkpt>
      <trkpt lat="43.33783" lon="-0.5379">
        <ele>133.279907</ele>
        <time>2012-11-16T11:49:19Z</time>
      </trkpt>
      <trkpt lat="43.33718" lon="-0.53704">
        <ele>132.799316</ele>
        <time>2012-11-16T11:49:38Z</time>
      </trkpt>
      <trkpt lat="43.33668" lon="-0.53619">
        <ele>133.279907</ele>
        <time>2012-11-16T11:49:57Z</time>
      </trkpt>
      <trkpt lat="43.33644" lon="-0.53577">
        <ele>132.799316</ele>
        <time>2012-11-16T11:50:06Z</time>
      </trkpt>
      <trkpt lat="43.33603" lon="-0.53537">
        <ele>132.799316</ele>
        <time>2012-11-16T11:50:17Z</time>
      </trkpt>
      <trkpt lat="43.33555" lon="-0.53517">
        <ele>132.799316</ele>
        <time>2012-11-16T11:50:29Z</time>
      </trkpt>
      <trkpt lat="43.33506" lon="-0.53502">
        <ele>133.279907</ele>
        <time>2012-11-16T11:50:41Z</time>
      </trkpt>
      <trkpt lat="43.33468" lon="-0.53489">
        <ele>133.760498</ele>
        <time>2012-11-16T11:50:50Z</time>
      </trkpt>
      <trkpt lat="43.33432" lon="-0.53474">
        <ele>133.760498</ele>
        <time>2012-11-16T11:50:59Z</time>
      </trkpt>
      <trkpt lat="43.33414" lon="-0.53461">
        <ele>134.721924</ele>
        <time>2012-11-16T11:51:04Z</time>
      </trkpt>
      <trkpt lat="43.33373" lon="-0.53415">
        <ele>136.16394</ele>
        <time>2012-11-16T11:51:18Z</time>
      </trkpt>
      <trkpt lat="43.33356" lon="-0.53376">
        <ele>136.644653</ele>
        <time>2012-11-16T11:51:28Z</time>
      </trkpt>
      <trkpt lat="43.33357" lon="-0.53369">
        <ele>136.16394</ele>
        <time>2012-11-16T11:51:32Z</time>
      </trkpt>
      <trkpt lat="43.33363" lon="-0.53362">
        <ele>137.125244</ele>
        <time>2012-11-16T11:51:40Z</time>
      </trkpt>
      <trkpt lat="43.33338" lon="-0.53395">
        <ele>136.644653</ele>
        <time>2012-11-16T11:51:52Z</time>
      </trkpt>
      <trkpt lat="43.33276" lon="-0.53478">
        <ele>134.241211</ele>
        <time>2012-11-16T11:52:12Z</time>
      </trkpt>
      <trkpt lat="43.33201" lon="-0.53576">
        <ele>134.241211</ele>
        <time>2012-11-16T11:52:34Z</time>
      </trkpt>
      <trkpt lat="43.33125" lon="-0.5367">
        <ele>133.760498</ele>
        <time>2012-11-16T11:52:56Z</time>
      </trkpt>
      <trkpt lat="43.3305" lon="-0.53724">
        <ele>133.760498</ele>
        <time>2012-11-16T11:53:15Z</time>
      </trkpt>
      <trkpt lat="43.32962" lon="-0.53784">
        <ele>134.241211</ele>
        <time>2012-11-16T11:53:37Z</time>
      </trkpt>
      <trkpt lat="43.32918" lon="-0.53864">
        <ele>134.721924</ele>
        <time>2012-11-16T11:53:54Z</time>
      </trkpt>
      <trkpt lat="43.32884" lon="-0.5396">
        <ele>136.16394</ele>
        <time>2012-11-16T11:54:13Z</time>
      </trkpt>
      <trkpt lat="43.32851" lon="-0.54039">
        <ele>139.047852</ele>
        <time>2012-11-16T11:54:31Z</time>
      </trkpt>
      <trkpt lat="43.32807" lon="-0.54107">
        <ele>139.528442</ele>
        <time>2012-11-16T11:54:51Z</time>
      </trkpt>
      <trkpt lat="43.32764" lon="-0.54173">
        <ele>142.893066</ele>
        <time>2012-11-16T11:55:12Z</time>
      </trkpt>
      <trkpt lat="43.32713" lon="-0.54245">
        <ele>145.7771</ele>
        <time>2012-11-16T11:55:37Z</time>
      </trkpt>
      <trkpt lat="43.32652" lon="-0.5431">
        <ele>147.218994</ele>
        <time>2012-11-16T11:56:03Z</time>
      </trkpt>
      <trkpt lat="43.32624" lon="-0.54352">
        <ele>148.18042</ele>
        <time>2012-11-16T11:56:20Z</time>
      </trkpt>
      <trkpt lat="43.32629" lon="-0.54383">
        <ele>147.699707</ele>
        <time>2012-11-16T11:56:36Z</time>
      </trkpt>
      <trkpt lat="43.32629" lon="-0.54382">
        <ele>148.18042</ele>
        <time>2012-11-16T11:57:22Z</time>
      </trkpt>
      <trkpt lat="43.32625" lon="-0.54372">
        <ele>148.18042</ele>
        <time>2012-11-16T11:57:29Z</time>
      </trkpt>
      <trkpt lat="43.3262" lon="-0.54349">
        <ele>147.699707</ele>
        <time>2012-11-16T11:57:36Z</time>
      </trkpt>
      <trkpt lat="43.3261" lon="-0.54351">
        <ele>148.18042</ele>
        <time>2012-11-16T11:57:40Z</time>
      </trkpt>
      <trkpt lat="43.3257" lon="-0.54395">
        <ele>149.622314</ele>
        <time>2012-11-16T11:57:59Z</time>
      </trkpt>
      <trkpt lat="43.32521" lon="-0.54447">
        <ele>152.025757</ele>
        <time>2012-11-16T11:58:21Z</time>
      </trkpt>
      <trkpt lat="43.32464" lon="-0.54508">
        <ele>155.390259</ele>
        <time>2012-11-16T11:58:47Z</time>
      </trkpt>
      <trkpt lat="43.32418" lon="-0.54556">
        <ele>158.27417</ele>
        <time>2012-11-16T11:59:08Z</time>
      </trkpt>
      <trkpt lat="43.32377" lon="-0.54601">
        <ele>161.158203</ele>
        <time>2012-11-16T11:59:30Z</time>
      </trkpt>
      <trkpt lat="43.3235" lon="-0.54638">
        <ele>163.561523</ele>
        <time>2012-11-16T11:59:47Z</time>
      </trkpt>
      <trkpt lat="43.32317" lon="-0.54661">
        <ele>165.484131</ele>
        <time>2012-11-16T12:00:04Z</time>
      </trkpt>
      <trkpt lat="43.32276" lon="-0.54687">
        <ele>168.368042</ele>
        <time>2012-11-16T12:00:24Z</time>
      </trkpt>
      <trkpt lat="43.32264" lon="-0.54699">
        <ele>170.771362</ele>
        <time>2012-11-16T12:00:31Z</time>
      </trkpt>
      <trkpt lat="43.32227" lon="-0.54736">
        <ele>174.135864</ele>
        <time>2012-11-16T12:00:51Z</time>
      </trkpt>
      <trkpt lat="43.32182" lon="-0.54749">
        <ele>177.02002</ele>
        <time>2012-11-16T12:01:10Z</time>
      </trkpt>
      <trkpt lat="43.32143" lon="-0.54779">
        <ele>179.903809</ele>
        <time>2012-11-16T12:01:30Z</time>
      </trkpt>
      <trkpt lat="43.3211" lon="-0.54785">
        <ele>182.787842</ele>
        <time>2012-11-16T12:01:45Z</time>
      </trkpt>
      <trkpt lat="43.32073" lon="-0.54807">
        <ele>186.633179</ele>
        <time>2012-11-16T12:02:05Z</time>
      </trkpt>
      <trkpt lat="43.32034" lon="-0.54826">
        <ele>189.036377</ele>
        <time>2012-11-16T12:02:24Z</time>
      </trkpt>
      <trkpt lat="43.32002" lon="-0.54837">
        <ele>191.920288</ele>
        <time>2012-11-16T12:02:40Z</time>
      </trkpt>
      <trkpt lat="43.31991" lon="-0.54841">
        <ele>192.881714</ele>
        <time>2012-11-16T12:02:46Z</time>
      </trkpt>
      <trkpt lat="43.31955" lon="-0.54856">
        <ele>194.804321</ele>
        <time>2012-11-16T12:03:04Z</time>
      </trkpt>
      <trkpt lat="43.31919" lon="-0.5487">
        <ele>197.688232</ele>
        <time>2012-11-16T12:03:22Z</time>
      </trkpt>
      <trkpt lat="43.3188" lon="-0.54875">
        <ele>201.052856</ele>
        <time>2012-11-16T12:03:42Z</time>
      </trkpt>
      <trkpt lat="43.31843" lon="-0.54878">
        <ele>203.456177</ele>
        <time>2012-11-16T12:04:00Z</time>
      </trkpt>
      <trkpt lat="43.31814" lon="-0.54871">
        <ele>204.898071</ele>
        <time>2012-11-16T12:04:14Z</time>
      </trkpt>
      <trkpt lat="43.31799" lon="-0.54838">
        <ele>208.262817</ele>
        <time>2012-11-16T12:04:28Z</time>
      </trkpt>
      <trkpt lat="43.31773" lon="-0.54816">
        <ele>212.108032</ele>
        <time>2012-11-16T12:04:44Z</time>
      </trkpt>
      <trkpt lat="43.31739" lon="-0.54823">
        <ele>214.991943</ele>
        <time>2012-11-16T12:05:01Z</time>
      </trkpt>
      <trkpt lat="43.31724" lon="-0.54857">
        <ele>217.875977</ele>
        <time>2012-11-16T12:05:17Z</time>
      </trkpt>
      <trkpt lat="43.31747" lon="-0.54891">
        <ele>219.798584</ele>
        <time>2012-11-16T12:05:34Z</time>
      </trkpt>
      <trkpt lat="43.31777" lon="-0.54921">
        <ele>221.721191</ele>
        <time>2012-11-16T12:05:52Z</time>
      </trkpt>
      <trkpt lat="43.31805" lon="-0.54942">
        <ele>224.605225</ele>
        <time>2012-11-16T12:06:08Z</time>
      </trkpt>
      <trkpt lat="43.31831" lon="-0.54957">
        <ele>227.969727</ele>
        <time>2012-11-16T12:06:22Z</time>
      </trkpt>
      <trkpt lat="43.31856" lon="-0.54982">
        <ele>230.85376</ele>
        <time>2012-11-16T12:06:37Z</time>
      </trkpt>
      <trkpt lat="43.31886" lon="-0.55011">
        <ele>233.25708</ele>
        <time>2012-11-16T12:06:56Z</time>
      </trkpt>
      <trkpt lat="43.31912" lon="-0.55027">
        <ele>234.699097</ele>
        <time>2012-11-16T12:07:11Z</time>
      </trkpt>
      <trkpt lat="43.31937" lon="-0.55042">
        <ele>237.102295</ele>
        <time>2012-11-16T12:07:25Z</time>
      </trkpt>
      <trkpt lat="43.31955" lon="-0.55057">
        <ele>239.986206</ele>
        <time>2012-11-16T12:07:37Z</time>
      </trkpt>
      <trkpt lat="43.31972" lon="-0.55089">
        <ele>242.389648</ele>
        <time>2012-11-16T12:07:52Z</time>
      </trkpt>
      <trkpt lat="43.31992" lon="-0.55142">
        <ele>244.312256</ele>
        <time>2012-11-16T12:08:14Z</time>
      </trkpt>
      <trkpt lat="43.32016" lon="-0.5517">
        <ele>247.196045</ele>
        <time>2012-11-16T12:08:30Z</time>
      </trkpt>
      <trkpt lat="43.32055" lon="-0.55184">
        <ele>250.0802</ele>
        <time>2012-11-16T12:08:50Z</time>
      </trkpt>
      <trkpt lat="43.32087" lon="-0.55199">
        <ele>252.963989</ele>
        <time>2012-11-16T12:09:07Z</time>
      </trkpt>
      <trkpt lat="43.32109" lon="-0.5522">
        <ele>255.36731</ele>
        <time>2012-11-16T12:09:22Z</time>
      </trkpt>
      <trkpt lat="43.32133" lon="-0.5525">
        <ele>257.770752</ele>
        <time>2012-11-16T12:09:39Z</time>
      </trkpt>
      <trkpt lat="43.32162" lon="-0.55273">
        <ele>260.654541</ele>
        <time>2012-11-16T12:09:54Z</time>
      </trkpt>
      <trkpt lat="43.32189" lon="-0.55297">
        <ele>262.577148</ele>
        <time>2012-11-16T12:10:10Z</time>
      </trkpt>
      <trkpt lat="43.32181" lon="-0.55315">
        <ele>263.538574</ele>
        <time>2012-11-16T12:10:21Z</time>
      </trkpt>
      <trkpt lat="43.32153" lon="-0.55297">
        <ele>266.903198</ele>
        <time>2012-11-16T12:10:37Z</time>
      </trkpt>
      <trkpt lat="43.32119" lon="-0.55285">
        <ele>269.306519</ele>
        <time>2012-11-16T12:10:55Z</time>
      </trkpt>
      <trkpt lat="43.32082" lon="-0.55275">
        <ele>272.671143</ele>
        <time>2012-11-16T12:11:14Z</time>
      </trkpt>
      <trkpt lat="43.32056" lon="-0.5529">
        <ele>274.59375</ele>
        <time>2012-11-16T12:11:29Z</time>
      </trkpt>
      <trkpt lat="43.32035" lon="-0.55336">
        <ele>275.074463</ele>
        <time>2012-11-16T12:11:46Z</time>
      </trkpt>
      <trkpt lat="43.32031" lon="-0.55344">
        <ele>276.516357</ele>
        <time>2012-11-16T12:11:49Z</time>
      </trkpt>
      <trkpt lat="43.32013" lon="-0.55378">
        <ele>279.400269</ele>
        <time>2012-11-16T12:12:03Z</time>
      </trkpt>
      <trkpt lat="43.32008" lon="-0.55388">
        <ele>280.361694</ele>
        <time>2012-11-16T12:12:07Z</time>
      </trkpt>
      <trkpt lat="43.31987" lon="-0.55423">
        <ele>281.322998</ele>
        <time>2012-11-16T12:12:27Z</time>
      </trkpt>
      <trkpt lat="43.31973" lon="-0.55449">
        <ele>280.842407</ele>
        <time>2012-11-16T12:12:40Z</time>
      </trkpt>
      <trkpt lat="43.31973" lon="-0.5545">
        <ele>280.361694</ele>
        <time>2012-11-16T12:12:44Z</time>
      </trkpt>
      <trkpt lat="43.3197" lon="-0.55464">
        <ele>280.361694</ele>
        <time>2012-11-16T12:12:58Z</time>
      </trkpt>
      <trkpt lat="43.31968" lon="-0.55463">
        <ele>280.361694</ele>
        <time>2012-11-16T12:13:41Z</time>
      </trkpt>
      <trkpt lat="43.31967" lon="-0.55464">
        <ele>279.880859</ele>
        <time>2012-11-16T12:14:29Z</time>
      </trkpt>
      <trkpt lat="43.31969" lon="-0.55462">
        <ele>279.880859</ele>
        <time>2012-11-16T12:15:16Z</time>
      </trkpt>
      <trkpt lat="43.31972" lon="-0.55462">
        <ele>279.880859</ele>
        <time>2012-11-16T12:15:49Z</time>
      </trkpt>
      <trkpt lat="43.31972" lon="-0.55464">
        <ele>278.919678</ele>
        <time>2012-11-16T12:16:32Z</time>
      </trkpt>
      <trkpt lat="43.31974" lon="-0.55465">
        <ele>278.919678</ele>
        <time>2012-11-16T12:17:38Z</time>
      </trkpt>
      <trkpt lat="43.31973" lon="-0.55466">
        <ele>269.787109</ele>
        <time>2012-11-16T12:18:55Z</time>
      </trkpt>
      <trkpt lat="43.31973" lon="-0.55466">
        <ele>279.880859</ele>
        <time>2012-11-16T12:18:56Z</time>
      </trkpt>
      <trkpt lat="43.31973" lon="-0.55466">
        <ele>284.206909</ele>
        <time>2012-11-16T12:18:57Z</time>
      </trkpt>
      <trkpt lat="43.31973" lon="-0.55466">
        <ele>281.803589</ele>
        <time>2012-11-16T12:18:58Z</time>
      </trkpt>
      <trkpt lat="43.31973" lon="-0.55466">
        <ele>278.919678</ele>
        <time>2012-11-16T12:19:01Z</time>
      </trkpt>
      <trkpt lat="43.31971" lon="-0.55464">
        <ele>279.400269</ele>
        <time>2012-11-16T12:19:20Z</time>
      </trkpt>
      <trkpt lat="43.3197" lon="-0.55466">
        <ele>279.880859</ele>
        <time>2012-11-16T12:19:35Z</time>
      </trkpt>
      <trkpt lat="43.31969" lon="-0.55466">
        <ele>279.400269</ele>
        <time>2012-11-16T12:20:31Z</time>
      </trkpt>
      <trkpt lat="43.31967" lon="-0.55467">
        <ele>279.400269</ele>
        <time>2012-11-16T12:21:10Z</time>
      </trkpt>
      <trkpt lat="43.31959" lon="-0.55512">
        <ele>276.516357</ele>
        <time>2012-11-16T12:21:20Z</time>
      </trkpt>
      <trkpt lat="43.31957" lon="-0.5552">
        <ele>275.074463</ele>
        <time>2012-11-16T12:21:22Z</time>
      </trkpt>
      <trkpt lat="43.3195" lon="-0.55558">
        <ele>271.229126</ele>
        <time>2012-11-16T12:21:28Z</time>
      </trkpt>
      <trkpt lat="43.31949" lon="-0.55564">
        <ele>270.748413</ele>
        <time>2012-11-16T12:21:29Z</time>
      </trkpt>
      <trkpt lat="43.31946" lon="-0.55588">
        <ele>268.345093</ele>
        <time>2012-11-16T12:21:32Z</time>
      </trkpt>
      <trkpt lat="43.31944" lon="-0.55605">
        <ele>265.941895</ele>
        <time>2012-11-16T12:21:34Z</time>
      </trkpt>
      <trkpt lat="43.31934" lon="-0.55634">
        <ele>262.096558</ele>
        <time>2012-11-16T12:21:38Z</time>
      </trkpt>
      <trkpt lat="43.31921" lon="-0.5567">
        <ele>259.212646</ele>
        <time>2012-11-16T12:21:43Z</time>
      </trkpt>
      <trkpt lat="43.31907" lon="-0.55697">
        <ele>255.848022</ele>
        <time>2012-11-16T12:21:47Z</time>
      </trkpt>
      <trkpt lat="43.31889" lon="-0.55716">
        <ele>252.483398</ele>
        <time>2012-11-16T12:21:51Z</time>
      </trkpt>
      <trkpt lat="43.31867" lon="-0.55737">
        <ele>248.638184</ele>
        <time>2012-11-16T12:21:55Z</time>
      </trkpt>
      <trkpt lat="43.31852" lon="-0.55751">
        <ele>245.75415</ele>
        <time>2012-11-16T12:21:58Z</time>
      </trkpt>
      <trkpt lat="43.31848" lon="-0.55755">
        <ele>244.792847</ele>
        <time>2012-11-16T12:21:59Z</time>
      </trkpt>
      <trkpt lat="43.31828" lon="-0.55762">
        <ele>241.908936</ele>
        <time>2012-11-16T12:22:03Z</time>
      </trkpt>
      <trkpt lat="43.31804" lon="-0.55757">
        <ele>236.140991</ele>
        <time>2012-11-16T12:22:07Z</time>
      </trkpt>
      <trkpt lat="43.31785" lon="-0.55752">
        <ele>233.25708</ele>
        <time>2012-11-16T12:22:10Z</time>
      </trkpt>
      <trkpt lat="43.31769" lon="-0.5575">
        <ele>229.892334</ele>
        <time>2012-11-16T12:22:13Z</time>
      </trkpt>
      <trkpt lat="43.3176" lon="-0.55748">
        <ele>228.450439</ele>
        <time>2012-11-16T12:22:15Z</time>
      </trkpt>
      <trkpt lat="43.31741" lon="-0.55753">
        <ele>227.489136</ele>
        <time>2012-11-16T12:22:19Z</time>
      </trkpt>
      <trkpt lat="43.31711" lon="-0.55762">
        <ele>223.643799</ele>
        <time>2012-11-16T12:22:23Z</time>
      </trkpt>
      <trkpt lat="43.31691" lon="-0.55769">
        <ele>220.759888</ele>
        <time>2012-11-16T12:22:25Z</time>
      </trkpt>
      <trkpt lat="43.31672" lon="-0.55781">
        <ele>219.317993</ele>
        <time>2012-11-16T12:22:27Z</time>
      </trkpt>
      <trkpt lat="43.31654" lon="-0.55801">
        <ele>217.875977</ele>
        <time>2012-11-16T12:22:29Z</time>
      </trkpt>
      <trkpt lat="43.3162" lon="-0.55867">
        <ele>212.588623</ele>
        <time>2012-11-16T12:22:34Z</time>
      </trkpt>
      <trkpt lat="43.31617" lon="-0.55896">
        <ele>210.666016</ele>
        <time>2012-11-16T12:22:36Z</time>
      </trkpt>
      <trkpt lat="43.31618" lon="-0.55941">
        <ele>206.340088</ele>
        <time>2012-11-16T12:22:39Z</time>
      </trkpt>
      <trkpt lat="43.31604" lon="-0.55985">
        <ele>202.014282</ele>
        <time>2012-11-16T12:22:43Z</time>
      </trkpt>
      <trkpt lat="43.31588" lon="-0.56005">
        <ele>199.130127</ele>
        <time>2012-11-16T12:22:45Z</time>
      </trkpt>
      <trkpt lat="43.31558" lon="-0.56053">
        <ele>194.32373</ele>
        <time>2012-11-16T12:22:49Z</time>
      </trkpt>
      <trkpt lat="43.3154" lon="-0.56088">
        <ele>190.958984</ele>
        <time>2012-11-16T12:22:52Z</time>
      </trkpt>
      <trkpt lat="43.31515" lon="-0.5611">
        <ele>188.555786</ele>
        <time>2012-11-16T12:22:55Z</time>
      </trkpt>
      <trkpt lat="43.31484" lon="-0.56133">
        <ele>184.229858</ele>
        <time>2012-11-16T12:22:59Z</time>
      </trkpt>
      <trkpt lat="43.31472" lon="-0.56154">
        <ele>182.307129</ele>
        <time>2012-11-16T12:23:04Z</time>
      </trkpt>
      <trkpt lat="43.31462" lon="-0.56157">
        <ele>181.826416</ele>
        <time>2012-11-16T12:23:06Z</time>
      </trkpt>
      <trkpt lat="43.31417" lon="-0.56166">
        <ele>180.865234</ele>
        <time>2012-11-16T12:23:13Z</time>
      </trkpt>
      <trkpt lat="43.31388" lon="-0.56181">
        <ele>177.02002</ele>
        <time>2012-11-16T12:23:17Z</time>
      </trkpt>
      <trkpt lat="43.31372" lon="-0.56196">
        <ele>174.616577</ele>
        <time>2012-11-16T12:23:19Z</time>
      </trkpt>
      <trkpt lat="43.3134" lon="-0.5622">
        <ele>169.329468</ele>
        <time>2012-11-16T12:23:23Z</time>
      </trkpt>
      <trkpt lat="43.31325" lon="-0.56228">
        <ele>166.926025</ele>
        <time>2012-11-16T12:23:25Z</time>
      </trkpt>
      <trkpt lat="43.31314" lon="-0.56239">
        <ele>165.964722</ele>
        <time>2012-11-16T12:23:27Z</time>
      </trkpt>
      <trkpt lat="43.31302" lon="-0.56256">
        <ele>162.600098</ele>
        <time>2012-11-16T12:23:29Z</time>
      </trkpt>
      <trkpt lat="43.31289" lon="-0.56272">
        <ele>159.716187</ele>
        <time>2012-11-16T12:23:31Z</time>
      </trkpt>
      <trkpt lat="43.31255" lon="-0.56313">
        <ele>153.467651</ele>
        <time>2012-11-16T12:23:35Z</time>
      </trkpt>
      <trkpt lat="43.31241" lon="-0.56336">
        <ele>150.583618</ele>
        <time>2012-11-16T12:23:37Z</time>
      </trkpt>
      <trkpt lat="43.31205" lon="-0.56354">
        <ele>148.18042</ele>
        <time>2012-11-16T12:23:42Z</time>
      </trkpt>
      <trkpt lat="43.31179" lon="-0.56344">
        <ele>147.218994</ele>
        <time>2012-11-16T12:23:46Z</time>
      </trkpt>
      <trkpt lat="43.31168" lon="-0.56352">
        <ele>146.738403</ele>
        <time>2012-11-16T12:23:51Z</time>
      </trkpt>
      <trkpt lat="43.3116" lon="-0.56458">
        <ele>145.296387</ele>
        <time>2012-11-16T12:24:08Z</time>
      </trkpt>
      <trkpt lat="43.3115" lon="-0.56512">
        <ele>144.335205</ele>
        <time>2012-11-16T12:24:19Z</time>
      </trkpt>
      <trkpt lat="43.3115" lon="-0.56519">
        <ele>143.85437</ele>
        <time>2012-11-16T12:24:21Z</time>
      </trkpt>
      <trkpt lat="43.3113" lon="-0.56565">
        <ele>142.893066</ele>
        <time>2012-11-16T12:24:34Z</time>
      </trkpt>
      <trkpt lat="43.31109" lon="-0.56607">
        <ele>143.373657</ele>
        <time>2012-11-16T12:24:46Z</time>
      </trkpt>
      <trkpt lat="43.3111" lon="-0.56665">
        <ele>142.412476</ele>
        <time>2012-11-16T12:25:00Z</time>
      </trkpt>
      <trkpt lat="43.31129" lon="-0.56702">
        <ele>141.931763</ele>
        <time>2012-11-16T12:25:13Z</time>
      </trkpt>
      <trkpt lat="43.31156" lon="-0.56731">
        <ele>142.412476</ele>
        <time>2012-11-16T12:25:25Z</time>
      </trkpt>
      <trkpt lat="43.31156" lon="-0.56811">
        <ele>141.45105</ele>
        <time>2012-11-16T12:25:43Z</time>
      </trkpt>
      <trkpt lat="43.31157" lon="-0.56832">
        <ele>141.45105</ele>
        <time>2012-11-16T12:25:48Z</time>
      </trkpt>
      <trkpt lat="43.31165" lon="-0.56841">
        <ele>141.931763</ele>
        <time>2012-11-16T12:25:52Z</time>
      </trkpt>
      <trkpt lat="43.31203" lon="-0.5684">
        <ele>142.412476</ele>
        <time>2012-11-16T12:26:05Z</time>
      </trkpt>
      <trkpt lat="43.3125" lon="-0.56841">
        <ele>141.931763</ele>
        <time>2012-11-16T12:26:19Z</time>
      </trkpt>
      <trkpt lat="43.31256" lon="-0.56843">
        <ele>141.931763</ele>
        <time>2012-11-16T12:26:21Z</time>
      </trkpt>
      <trkpt lat="43.3126" lon="-0.56854">
        <ele>142.412476</ele>
        <time>2012-11-16T12:26:25Z</time>
      </trkpt>
      <trkpt lat="43.3126" lon="-0.5686">
        <ele>141.931763</ele>
        <time>2012-11-16T12:26:27Z</time>
      </trkpt>
      <trkpt lat="43.3125" lon="-0.56864">
        <ele>141.931763</ele>
        <time>2012-11-16T12:26:31Z</time>
      </trkpt>
      <trkpt lat="43.31215" lon="-0.56882">
        <ele>142.412476</ele>
        <time>2012-11-16T12:26:43Z</time>
      </trkpt>
      <trkpt lat="43.31183" lon="-0.5688">
        <ele>142.412476</ele>
        <time>2012-11-16T12:26:54Z</time>
      </trkpt>
      <trkpt lat="43.31172" lon="-0.56879">
        <ele>141.931763</ele>
        <time>2012-11-16T12:27:04Z</time>
      </trkpt>
      <trkpt lat="43.3117" lon="-0.5688">
        <ele>141.45105</ele>
        <time>2012-11-16T12:27:30Z</time>
      </trkpt>
      <trkpt lat="43.31173" lon="-0.56877">
        <ele>141.931763</ele>
        <time>2012-11-16T12:28:21Z</time>
      </trkpt>
      <trkpt lat="43.31174" lon="-0.56877">
        <ele>140.970459</ele>
        <time>2012-11-16T12:28:44Z</time>
      </trkpt>
      <trkpt lat="43.3118" lon="-0.5687">
        <ele>140.489868</ele>
        <time>2012-11-16T12:30:05Z</time>
      </trkpt>
      <trkpt lat="43.31177" lon="-0.56875">
        <ele>136.16394</ele>
        <time>2012-11-16T12:31:16Z</time>
      </trkpt>
      <trkpt lat="43.31177" lon="-0.56875">
        <ele>140.970459</ele>
        <time>2012-11-16T12:31:17Z</time>
      </trkpt>
      <trkpt lat="43.31177" lon="-0.56875">
        <ele>136.16394</ele>
        <time>2012-11-16T12:31:18Z</time>
      </trkpt>
      <trkpt lat="43.31177" lon="-0.56876">
        <ele>144.815796</ele>
        <time>2012-11-16T12:31:19Z</time>
      </trkpt>
      <trkpt lat="43.31177" lon="-0.56876">
        <ele>141.45105</ele>
        <time>2012-11-16T12:31:21Z</time>
      </trkpt>
      <trkpt lat="43.31176" lon="-0.56876">
        <ele>140.489868</ele>
        <time>2012-11-16T12:31:23Z</time>
      </trkpt>
      <trkpt lat="43.31175" lon="-0.56877">
        <ele>139.528442</ele>
        <time>2012-11-16T12:31:38Z</time>
      </trkpt>
      <trkpt lat="43.31172" lon="-0.56881">
        <ele>139.047852</ele>
        <time>2012-11-16T12:31:57Z</time>
      </trkpt>
      <trkpt lat="43.31172" lon="-0.56882">
        <ele>140.009155</ele>
        <time>2012-11-16T12:32:11Z</time>
      </trkpt>
      <trkpt lat="43.31169" lon="-0.56883">
        <ele>140.009155</ele>
        <time>2012-11-16T12:32:33Z</time>
      </trkpt>
      <trkpt lat="43.31171" lon="-0.56893">
        <ele>140.970459</ele>
        <time>2012-11-16T12:32:38Z</time>
      </trkpt>
      <trkpt lat="43.3119" lon="-0.56951">
        <ele>141.45105</ele>
        <time>2012-11-16T12:32:57Z</time>
      </trkpt>
      <trkpt lat="43.31213" lon="-0.56989">
        <ele>141.931763</ele>
        <time>2012-11-16T12:33:12Z</time>
      </trkpt>
      <trkpt lat="43.31233" lon="-0.57026">
        <ele>143.373657</ele>
        <time>2012-11-16T12:33:26Z</time>
      </trkpt>
      <trkpt lat="43.31263" lon="-0.57075">
        <ele>144.815796</ele>
        <time>2012-11-16T12:33:42Z</time>
      </trkpt>
      <trkpt lat="43.3131" lon="-0.57095">
        <ele>145.296387</ele>
        <time>2012-11-16T12:33:57Z</time>
      </trkpt>
      <trkpt lat="43.31374" lon="-0.57108">
        <ele>144.815796</ele>
        <time>2012-11-16T12:34:15Z</time>
      </trkpt>
      <trkpt lat="43.31408" lon="-0.57132">
        <ele>145.7771</ele>
        <time>2012-11-16T12:34:27Z</time>
      </trkpt>
      <trkpt lat="43.31423" lon="-0.57162">
        <ele>149.141602</ele>
        <time>2012-11-16T12:34:37Z</time>
      </trkpt>
      <trkpt lat="43.31437" lon="-0.57206">
        <ele>152.025757</ele>
        <time>2012-11-16T12:34:51Z</time>
      </trkpt>
      <trkpt lat="43.31493" lon="-0.57227">
        <ele>152.025757</ele>
        <time>2012-11-16T12:35:10Z</time>
      </trkpt>
      <trkpt lat="43.31564" lon="-0.57269">
        <ele>152.025757</ele>
        <time>2012-11-16T12:35:30Z</time>
      </trkpt>
      <trkpt lat="43.31596" lon="-0.57272">
        <ele>151.544922</ele>
        <time>2012-11-16T12:35:38Z</time>
      </trkpt>
      <trkpt lat="43.3164" lon="-0.57296">
        <ele>151.544922</ele>
        <time>2012-11-16T12:35:49Z</time>
      </trkpt>
      <trkpt lat="43.31652" lon="-0.57325">
        <ele>151.064209</ele>
        <time>2012-11-16T12:35:55Z</time>
      </trkpt>
      <trkpt lat="43.31651" lon="-0.5741">
        <ele>151.544922</ele>
        <time>2012-11-16T12:36:11Z</time>
      </trkpt>
      <trkpt lat="43.31626" lon="-0.57497">
        <ele>152.506348</ele>
        <time>2012-11-16T12:36:28Z</time>
      </trkpt>
      <trkpt lat="43.31608" lon="-0.57569">
        <ele>154.909546</ele>
        <time>2012-11-16T12:36:45Z</time>
      </trkpt>
      <trkpt lat="43.31597" lon="-0.57636">
        <ele>156.832153</ele>
        <time>2012-11-16T12:37:02Z</time>
      </trkpt>
      <trkpt lat="43.31595" lon="-0.5767">
        <ele>156.832153</ele>
        <time>2012-11-16T12:37:10Z</time>
      </trkpt>
      <trkpt lat="43.31624" lon="-0.577">
        <ele>154.909546</ele>
        <time>2012-11-16T12:37:17Z</time>
      </trkpt>
      <trkpt lat="43.31645" lon="-0.57703">
        <ele>153.467651</ele>
        <time>2012-11-16T12:37:20Z</time>
      </trkpt>
      <trkpt lat="43.31721" lon="-0.57672">
        <ele>152.025757</ele>
        <time>2012-11-16T12:37:33Z</time>
      </trkpt>
      <trkpt lat="43.31748" lon="-0.57666">
        <ele>151.544922</ele>
        <time>2012-11-16T12:37:39Z</time>
      </trkpt>
      <trkpt lat="43.31767" lon="-0.57671">
        <ele>153.467651</ele>
        <time>2012-11-16T12:37:44Z</time>
      </trkpt>
      <trkpt lat="43.31772" lon="-0.57675">
        <ele>154.428955</ele>
        <time>2012-11-16T12:37:46Z</time>
      </trkpt>
      <trkpt lat="43.31777" lon="-0.57684">
        <ele>155.870972</ele>
        <time>2012-11-16T12:37:50Z</time>
      </trkpt>
      <trkpt lat="43.31765" lon="-0.57741">
        <ele>155.870972</ele>
        <time>2012-11-16T12:38:04Z</time>
      </trkpt>
      <trkpt lat="43.31756" lon="-0.57821">
        <ele>157.312866</ele>
        <time>2012-11-16T12:38:23Z</time>
      </trkpt>
      <trkpt lat="43.31745" lon="-0.57842">
        <ele>157.312866</ele>
        <time>2012-11-16T12:38:29Z</time>
      </trkpt>
      <trkpt lat="43.31678" lon="-0.57882">
        <ele>155.390259</ele>
        <time>2012-11-16T12:38:41Z</time>
      </trkpt>
      <trkpt lat="43.31665" lon="-0.57889">
        <ele>155.390259</ele>
        <time>2012-11-16T12:38:43Z</time>
      </trkpt>
      <trkpt lat="43.31632" lon="-0.57883">
        <ele>155.390259</ele>
        <time>2012-11-16T12:38:50Z</time>
      </trkpt>
      <trkpt lat="43.31594" lon="-0.57854">
        <ele>157.793579</ele>
        <time>2012-11-16T12:39:03Z</time>
      </trkpt>
      <trkpt lat="43.31558" lon="-0.57826">
        <ele>160.67749</ele>
        <time>2012-11-16T12:39:18Z</time>
      </trkpt>
      <trkpt lat="43.31529" lon="-0.57823">
        <ele>163.080811</ele>
        <time>2012-11-16T12:39:33Z</time>
      </trkpt>
      <trkpt lat="43.3152" lon="-0.57853">
        <ele>166.445312</ele>
        <time>2012-11-16T12:39:46Z</time>
      </trkpt>
      <trkpt lat="43.31507" lon="-0.5789">
        <ele>169.810059</ele>
        <time>2012-11-16T12:40:04Z</time>
      </trkpt>
      <trkpt lat="43.31495" lon="-0.57929">
        <ele>172.69397</ele>
        <time>2012-11-16T12:40:24Z</time>
      </trkpt>
      <trkpt lat="43.31488" lon="-0.57956">
        <ele>175.577881</ele>
        <time>2012-11-16T12:40:37Z</time>
      </trkpt>
      <trkpt lat="43.31481" lon="-0.57982">
        <ele>178.942627</ele>
        <time>2012-11-16T12:40:50Z</time>
      </trkpt>
      <trkpt lat="43.3147" lon="-0.58006">
        <ele>182.307129</ele>
        <time>2012-11-16T12:41:05Z</time>
      </trkpt>
      <trkpt lat="43.31452" lon="-0.58032">
        <ele>185.191162</ele>
        <time>2012-11-16T12:41:21Z</time>
      </trkpt>
      <trkpt lat="43.31431" lon="-0.58062">
        <ele>188.555786</ele>
        <time>2012-11-16T12:41:39Z</time>
      </trkpt>
      <trkpt lat="43.31407" lon="-0.58095">
        <ele>189.997681</ele>
        <time>2012-11-16T12:41:58Z</time>
      </trkpt>
      <trkpt lat="43.31378" lon="-0.58133">
        <ele>192.401123</ele>
        <time>2012-11-16T12:42:17Z</time>
      </trkpt>
      <trkpt lat="43.31344" lon="-0.58179">
        <ele>195.284912</ele>
        <time>2012-11-16T12:42:38Z</time>
      </trkpt>
      <trkpt lat="43.31316" lon="-0.58227">
        <ele>196.726929</ele>
        <time>2012-11-16T12:42:58Z</time>
      </trkpt>
      <trkpt lat="43.31297" lon="-0.58274">
        <ele>200.091675</ele>
        <time>2012-11-16T12:43:15Z</time>
      </trkpt>
      <trkpt lat="43.31283" lon="-0.58299">
        <ele>203.93689</ele>
        <time>2012-11-16T12:43:25Z</time>
      </trkpt>
      <trkpt lat="43.31281" lon="-0.58302">
        <ele>203.456177</ele>
        <time>2012-11-16T12:43:26Z</time>
      </trkpt>
      <trkpt lat="43.31258" lon="-0.5834">
        <ele>207.301392</ele>
        <time>2012-11-16T12:43:44Z</time>
      </trkpt>
      <trkpt lat="43.31247" lon="-0.58378">
        <ele>209.224121</ele>
        <time>2012-11-16T12:43:59Z</time>
      </trkpt>
      <trkpt lat="43.31242" lon="-0.58397">
        <ele>211.146729</ele>
        <time>2012-11-16T12:44:08Z</time>
      </trkpt>
      <trkpt lat="43.31227" lon="-0.58434">
        <ele>214.991943</ele>
        <time>2012-11-16T12:44:28Z</time>
      </trkpt>
      <trkpt lat="43.31215" lon="-0.58468">
        <ele>217.395386</ele>
        <time>2012-11-16T12:44:46Z</time>
      </trkpt>
      <trkpt lat="43.312" lon="-0.58498">
        <ele>219.798584</ele>
        <time>2012-11-16T12:45:02Z</time>
      </trkpt>
      <trkpt lat="43.31176" lon="-0.58528">
        <ele>222.682495</ele>
        <time>2012-11-16T12:45:22Z</time>
      </trkpt>
      <trkpt lat="43.31174" lon="-0.58529">
        <ele>223.163208</ele>
        <time>2012-11-16T12:45:23Z</time>
      </trkpt>
      <trkpt lat="43.31173" lon="-0.58538">
        <ele>223.643799</ele>
        <time>2012-11-16T12:45:28Z</time>
      </trkpt>
      <trkpt lat="43.31175" lon="-0.58542">
        <ele>223.643799</ele>
        <time>2012-11-16T12:45:30Z</time>
      </trkpt>
      <trkpt lat="43.31183" lon="-0.58544">
        <ele>224.124512</ele>
        <time>2012-11-16T12:45:46Z</time>
      </trkpt>
      <trkpt lat="43.31183" lon="-0.58541">
        <ele>223.643799</ele>
        <time>2012-11-16T12:46:06Z</time>
      </trkpt>
      <trkpt lat="43.31183" lon="-0.58543">
        <ele>224.124512</ele>
        <time>2012-11-16T12:46:37Z</time>
      </trkpt>
      <trkpt lat="43.31211" lon="-0.58554">
        <ele>224.124512</ele>
        <time>2012-11-16T12:46:49Z</time>
      </trkpt>
      <trkpt lat="43.31251" lon="-0.58567">
        <ele>221.240601</ele>
        <time>2012-11-16T12:46:57Z</time>
      </trkpt>
      <trkpt lat="43.31345" lon="-0.58601">
        <ele>219.317993</ele>
        <time>2012-11-16T12:47:11Z</time>
      </trkpt>
      <trkpt lat="43.31403" lon="-0.58601">
        <ele>218.356567</ele>
        <time>2012-11-16T12:47:24Z</time>
      </trkpt>
      <trkpt lat="43.31423" lon="-0.58597">
        <ele>216.914673</ele>
        <time>2012-11-16T12:47:29Z</time>
      </trkpt>
      <trkpt lat="43.31469" lon="-0.5856">
        <ele>214.03064</ele>
        <time>2012-11-16T12:47:38Z</time>
      </trkpt>
      <trkpt lat="43.31496" lon="-0.58543">
        <ele>211.146729</ele>
        <time>2012-11-16T12:47:42Z</time>
      </trkpt>
      <trkpt lat="43.31541" lon="-0.58535">
        <ele>207.301392</ele>
        <time>2012-11-16T12:47:48Z</time>
      </trkpt>
      <trkpt lat="43.31548" lon="-0.58536">
        <ele>207.301392</ele>
        <time>2012-11-16T12:47:49Z</time>
      </trkpt>
      <trkpt lat="43.31577" lon="-0.58537">
        <ele>203.456177</ele>
        <time>2012-11-16T12:47:54Z</time>
      </trkpt>
      <trkpt lat="43.31581" lon="-0.58537">
        <ele>203.456177</ele>
        <time>2012-11-16T12:47:55Z</time>
      </trkpt>
      <trkpt lat="43.31584" lon="-0.58537">
        <ele>201.533569</ele>
        <time>2012-11-16T12:47:56Z</time>
      </trkpt>
      <trkpt lat="43.31592" lon="-0.5855">
        <ele>201.533569</ele>
        <time>2012-11-16T12:48:05Z</time>
      </trkpt>
      <trkpt lat="43.31592" lon="-0.58551">
        <ele>202.014282</ele>
        <time>2012-11-16T12:48:18Z</time>
      </trkpt>
      <trkpt lat="43.31588" lon="-0.58552">
        <ele>201.533569</ele>
        <time>2012-11-16T12:49:06Z</time>
      </trkpt>
      <trkpt lat="43.31591" lon="-0.58549">
        <ele>201.533569</ele>
        <time>2012-11-16T12:49:38Z</time>
      </trkpt>
      <trkpt lat="43.31587" lon="-0.58551">
        <ele>202.494873</ele>
        <time>2012-11-16T12:49:45Z</time>
      </trkpt>
      <trkpt lat="43.31592" lon="-0.58601">
        <ele>204.898071</ele>
        <time>2012-11-16T12:49:59Z</time>
      </trkpt>
      <trkpt lat="43.31586" lon="-0.58637">
        <ele>206.820679</ele>
        <time>2012-11-16T12:50:08Z</time>
      </trkpt>
      <trkpt lat="43.31582" lon="-0.58646">
        <ele>206.820679</ele>
        <time>2012-11-16T12:50:15Z</time>
      </trkpt>
      <trkpt lat="43.31578" lon="-0.58648">
        <ele>206.820679</ele>
        <time>2012-11-16T12:50:29Z</time>
      </trkpt>
      <trkpt lat="43.3158" lon="-0.58645">
        <ele>206.820679</ele>
        <time>2012-11-16T12:50:49Z</time>
      </trkpt>
      <trkpt lat="43.31581" lon="-0.58642">
        <ele>206.820679</ele>
        <time>2012-11-16T12:51:05Z</time>
      </trkpt>
      <trkpt lat="43.31582" lon="-0.58638">
        <ele>207.301392</ele>
        <time>2012-11-16T12:51:33Z</time>
      </trkpt>
      <trkpt lat="43.31578" lon="-0.58651">
        <ele>207.301392</ele>
        <time>2012-11-16T12:51:49Z</time>
      </trkpt>
      <trkpt lat="43.31577" lon="-0.58654">
        <ele>207.301392</ele>
        <time>2012-11-16T12:52:07Z</time>
      </trkpt>
      <trkpt lat="43.31578" lon="-0.58652">
        <ele>206.820679</ele>
        <time>2012-11-16T12:52:27Z</time>
      </trkpt>
      <trkpt lat="43.31579" lon="-0.58644">
        <ele>207.782104</ele>
        <time>2012-11-16T12:53:51Z</time>
      </trkpt>
      <trkpt lat="43.31577" lon="-0.58645">
        <ele>207.782104</ele>
        <time>2012-11-16T12:54:06Z</time>
      </trkpt>
    </trkseg>
  </trk>
</gpx>